Observation data for McCamey on 02/21/2019      Previous  Date  Next       Current Mesonet Observations  Soil Data  Daily Summary Page  Observations in Plain Language
KMC4 210600Z 15008KT 10/M02 A2988 RMK A01 T01041015  RH  043%=      5-min Rain = 0
KMC4 210601Z 14008KT 10/M02 A2988 RMK A01 T01031015  RH  044%=      5-min Rain = 0
KMC4 210602Z 14008KT 10/M02 A2988 RMK A01 T01031015  RH  044%=      5-min Rain = 0
KMC4 210603Z 14009KT 10/M02 A2988 RMK A01 T01021015  RH  044%=      5-min Rain = 0
KMC4 210604Z 14009KT 10/M02 A2988 RMK A01 T01021015  RH  044%=      5-min Rain = 0
KMC4 210605Z 14008KT 10/M02 A2988 RMK A01 T01031015  RH  044%=      5-min Rain = 0
KMC4 210606Z 14009KT 10/M02 A2988 RMK A01 T01031015  RH  044%=      5-min Rain = 0
KMC4 210607Z 14008KT 10/M02 A2988 RMK A01 T01031015  RH  044%=      5-min Rain = 0
KMC4 210608Z 14007KT 10/M02 A2989 RMK A01 T01031015  RH  044%=      5-min Rain = 0
KMC4 210609Z 14007KT 10/M02 A2988 RMK A01 T01031015  RH  044%=      5-min Rain = 0
KMC4 210610Z 14007KT 10/M02 A2988 RMK A01 T01021015  RH  044%=      5-min Rain = 0
KMC4 210611Z 14008KT 10/M02 A2988 RMK A01 T01021015  RH  044%=      5-min Rain = 0
KMC4 210612Z 14008KT 10/M02 A2988 RMK A01 T01011015  RH  044%=      5-min Rain = 0
KMC4 210613Z 13007KT 10/M02 A2988 RMK A01 T01011016  RH  044%=      5-min Rain = 0
KMC4 210614Z 14008KT 10/M02 A2988 RMK A01 T01021015  RH  044%=      5-min Rain = 0
KMC4 210615Z 14006KT 10/M02 A2988 RMK A01 T01011016  RH  044%=      5-min Rain = 0
KMC4 210616Z 14007KT 10/M02 A2988 RMK A01 T01011016  RH  044%=      5-min Rain = 0
KMC4 210617Z 14008KT 10/M02 A2988 RMK A01 T01011016  RH  044%=      5-min Rain = 0
KMC4 210618Z 14007KT 10/M02 A2988 RMK A01 T01011016  RH  044%=      5-min Rain = 0
KMC4 210619Z 14007KT 10/M02 A2988 RMK A01 T01011016  RH  044%=      5-min Rain = 0
KMC4 210620Z 14009KT 10/M02 A2988 RMK A01 T01011017  RH  044%=      5-min Rain = 0
KMC4 210621Z 14008KT 10/M02 A2989 RMK A01 T01001017  RH  044%=      5-min Rain = 0
KMC4 210622Z 14010KT 10/M02 A2989 RMK A01 T01001017  RH  044%=      5-min Rain = 0
KMC4 210623Z 14011KT 10/M02 A2988 RMK A01 T01011018  RH  043%=      5-min Rain = 0
KMC4 210624Z 14009KT 10/M02 A2988 RMK A01 T01011018  RH  043%=      5-min Rain = 0
KMC4 210625Z 14009KT 10/M02 A2988 RMK A01 T01021018  RH  043%=      5-min Rain = 0
KMC4 210626Z 14009KT 10/M02 A2988 RMK A01 T01011018  RH  043%=      5-min Rain = 0
KMC4 210627Z 14010KT 10/M02 A2988 RMK A01 T01011018  RH  043%=      5-min Rain = 0
KMC4 210628Z 14008KT 10/M02 A2988 RMK A01 T01011018  RH  043%=      5-min Rain = 0
KMC4 210629Z 14011KT 10/M02 A2988 RMK A01 T01011018  RH  043%=      5-min Rain = 0
KMC4 210630Z 14009KT 10/M02 A2988 RMK A01 T01001019  RH  043%=      5-min Rain = 0
KMC4 210631Z 13011KT 10/M02 A2988 RMK A01 T01001018  RH  043%=      5-min Rain = 0
KMC4 210632Z 13011KT 10/M02 A2988 RMK A01 T01001019  RH  043%=      5-min Rain = 0
KMC4 210633Z 13010KT 10/M02 A2988 RMK A01 T01011019  RH  043%=      5-min Rain = 0
KMC4 210634Z 13011KT 10/M02 A2988 RMK A01 T01011019  RH  043%=      5-min Rain = 0
KMC4 210635Z 13012KT 10/M02 A2988 RMK A01 T01011020  RH  043%=      5-min Rain = 0
KMC4 210636Z 13010KT 10/M02 A2988 RMK A01 T01011020  RH  043%=      5-min Rain = 0
KMC4 210637Z 14013KT 10/M02 A2988 RMK A01 T01011020  RH  043%=      5-min Rain = 0
KMC4 210638Z 13011KT 10/M02 A2988 RMK A01 T01021020  RH  042%=      5-min Rain = 0
KMC4 210639Z 13010KT 10/M02 A2988 RMK A01 T01031020  RH  042%=      5-min Rain = 0
KMC4 210640Z 13010KT 10/M02 A2988 RMK A01 T01031020  RH  042%=      5-min Rain = 0
KMC4 210641Z 12010KT 10/M02 A2988 RMK A01 T01021020  RH  042%=      5-min Rain = 0
KMC4 210642Z 12010KT 10/M02 A2988 RMK A01 T01011021  RH  042%=      5-min Rain = 0
KMC4 210643Z 12010KT 10/M02 A2988 RMK A01 T01021021  RH  042%=      5-min Rain = 0
KMC4 210644Z 12011KT 10/M02 A2988 RMK A01 T01021021  RH  042%=      5-min Rain = 0
KMC4 210645Z 12011KT 10/M02 A2987 RMK A01 T01031021  RH  042%=      5-min Rain = 0
KMC4 210646Z 11010KT 10/M02 A2987 RMK A01 T01041022  RH  041%=      5-min Rain = 0
KMC4 210647Z 12011KT 10/M02 A2987 RMK A01 T01041022  RH  041%=      5-min Rain = 0
KMC4 210648Z 11010KT 11/M02 A2987 RMK A01 T01051022  RH  041%=      5-min Rain = 0
KMC4 210649Z 11010KT 10/M02 A2987 RMK A01 T01041022  RH  041%=      5-min Rain = 0
KMC4 210650Z 10009KT 10/M02 A2987 RMK A01 T01041022  RH  041%=      5-min Rain = 0
KMC4 210651Z 10010KT 10/M02 A2987 RMK A01 T01041022  RH  041%=      5-min Rain = 0
KMC4 210652Z 11010KT 10/M02 A2987 RMK A01 T01041022  RH  041%=      5-min Rain = 0
KMC4 210653Z 11009KT 10/M02 A2987 RMK A01 T01041023  RH  041%=      5-min Rain = 0
KMC4 210654Z 10011KT 10/M02 A2987 RMK A01 T01041023  RH  041%=      5-min Rain = 0
KMC4 210655Z 10009KT 10/M02 A2987 RMK A01 T01041023  RH  041%=      5-min Rain = 0
KMC4 210656Z 11007KT 11/M02 A2987 RMK A01 T01051022  RH  041%=      5-min Rain = 0
KMC4 210657Z 10008KT 10/M02 A2987 RMK A01 T01041022  RH  041%=      5-min Rain = 0
KMC4 210658Z 11008KT 10/M02 A2987 RMK A01 T01031023  RH  041%=      5-min Rain = 0
KMC4 210659Z 11009KT 10/M02 A2987 RMK A01 T01031023  RH  041%=      5-min Rain = 0
KMC4 210700Z 10008KT 10/M02 A2987 RMK A01 T01041023  RH  041%=      5-min Rain = 0
KMC4 210701Z 11009KT 10/M02 A2987 RMK A01 T01041023  RH  041%=      5-min Rain = 0
KMC4 210702Z 11008KT 10/M02 A2988 RMK A01 T01041023  RH  041%=      5-min Rain = 0
KMC4 210703Z 11009KT 10/M02 A2988 RMK A01 T01041023  RH  041%=      5-min Rain = 0
KMC4 210704Z 11008KT 11/M02 A2988 RMK A01 T01051024  RH  041%=      5-min Rain = 0
KMC4 210705Z 11005KT 10/M02 A2988 RMK A01 T01041023  RH  041%=      5-min Rain = 0
KMC4 210706Z 09007KT 10/M02 A2988 RMK A01 T01031023  RH  041%=      5-min Rain = 0
KMC4 210707Z 09008KT 10/M02 A2988 RMK A01 T01021024  RH  041%=      5-min Rain = 0
KMC4 210708Z 09007KT 10/M02 A2988 RMK A01 T01021024  RH  041%=      5-min Rain = 0
KMC4 210709Z 10006KT 10/M02 A2988 RMK A01 T01021023  RH  041%=      5-min Rain = 0
KMC4 210710Z 11006KT 10/M02 A2988 RMK A01 T01021023  RH  042%=      5-min Rain = 0
KMC4 210711Z 11008KT 10/M02 A2987 RMK A01 T01011023  RH  042%=      5-min Rain = 0
KMC4 210712Z 09006KT 10/M02 A2987 RMK A01 T01001023  RH  042%=      5-min Rain = 0
KMC4 210713Z 10006KT 10/M02 A2987 RMK A01 T01011023  RH  042%=      5-min Rain = 0
KMC4 210714Z 10009KT 10/M02 A2987 RMK A01 T01011023  RH  042%=      5-min Rain = 0
KMC4 210715Z 11007KT 10/M02 A2987 RMK A01 T01011024  RH  042%=      5-min Rain = 0
KMC4 210716Z 10007KT 10/M02 A2987 RMK A01 T01011024  RH  041%=      5-min Rain = 0
KMC4 210717Z 11008KT 10/M02 A2987 RMK A01 T01011024  RH  041%=      5-min Rain = 0
KMC4 210718Z 10007KT 10/M02 A2987 RMK A01 T01011024  RH  042%=      5-min Rain = 0
KMC4 210719Z 10007KT 10/M02 A2987 RMK A01 T01011024  RH  042%=      5-min Rain = 0
KMC4 210720Z 12008KT 10/M02 A2987 RMK A01 T01011024  RH  041%=      5-min Rain = 0
KMC4 210721Z 10006KT 10/M02 A2987 RMK A01 T01021024  RH  041%=      5-min Rain = 0
KMC4 210722Z 10006KT 10/M02 A2987 RMK A01 T01011024  RH  041%=      5-min Rain = 0
KMC4 210723Z 10008KT 10/M02 A2987 RMK A01 T01001024  RH  042%=      5-min Rain = 0
KMC4 210724Z 10007KT 10/M02 A2987 RMK A01 T01001024  RH  042%=      5-min Rain = 0
KMC4 210725Z 09006KT 10/M02 A2986 RMK A01 T01001024  RH  042%=      5-min Rain = 0
KMC4 210726Z 11005KT 10/M02 A2987 RMK A01 T01001024  RH  042%=      5-min Rain = 0
KMC4 210727Z 09005KT 10/M02 A2986 RMK A01 T01001024  RH  042%=      5-min Rain = 0
KMC4 210728Z 08005KT 10/M02 A2986 RMK A01 T00991024  RH  042%=      5-min Rain = 0
KMC4 210729Z 11006KT 10/M02 A2986 RMK A01 T00991024  RH  042%=      5-min Rain = 0
KMC4 210730Z 11009KT 10/M02 A2986 RMK A01 T00991024  RH  042%=      5-min Rain = 0
KMC4 210731Z 11008KT 10/M03 A2986 RMK A01 T00991025  RH  042%=      5-min Rain = 0
KMC4 210732Z 11010KT 10/M03 A2986 RMK A01 T00991025  RH  042%=      5-min Rain = 0
KMC4 210733Z 11008KT 10/M03 A2986 RMK A01 T01001025  RH  041%=      5-min Rain = 0
KMC4 210734Z 11007KT 10/M03 A2986 RMK A01 T01011025  RH  041%=      5-min Rain = 0
KMC4 210735Z 11007KT 10/M03 A2986 RMK A01 T01001025  RH  041%=      5-min Rain = 0
KMC4 210736Z 10006KT 10/M03 A2986 RMK A01 T01001025  RH  042%=      5-min Rain = 0
KMC4 210737Z 10007KT 10/M03 A2986 RMK A01 T00991025  RH  042%=      5-min Rain = 0
KMC4 210738Z 11008KT 10/M03 A2986 RMK A01 T00991025  RH  042%=      5-min Rain = 0
KMC4 210739Z 11009KT 10/M03 A2986 RMK A01 T00991025  RH  042%=      5-min Rain = 0
KMC4 210740Z 12008KT 10/M03 A2986 RMK A01 T00991025  RH  042%=      5-min Rain = 0
KMC4 210741Z 11009KT 10/M03 A2986 RMK A01 T00991026  RH  041%=      5-min Rain = 0
KMC4 210742Z 12010KT 10/M03 A2986 RMK A01 T01001026  RH  041%=      5-min Rain = 0
KMC4 210743Z 11010KT 10/M03 A2985 RMK A01 T01011026  RH  041%=      5-min Rain = 0
KMC4 210744Z 10007KT 10/M03 A2985 RMK A01 T01011026  RH  041%=      5-min Rain = 0
KMC4 210745Z 10010KT 10/M03 A2985 RMK A01 T01011026  RH  041%=      5-min Rain = 0
KMC4 210746Z 10008KT 10/M03 A2985 RMK A01 T01011026  RH  041%=      5-min Rain = 0
KMC4 210747Z 11009KT 10/M03 A2985 RMK A01 T01011026  RH  041%=      5-min Rain = 0
KMC4 210748Z 11008KT 10/M03 A2985 RMK A01 T01011026  RH  041%=      5-min Rain = 0
KMC4 210749Z 10010KT 10/M03 A2985 RMK A01 T01001026  RH  041%=      5-min Rain = 0
KMC4 210750Z 11008KT 10/M03 A2985 RMK A01 T01001026  RH  041%=      5-min Rain = 0
KMC4 210751Z 10007KT 10/M03 A2985 RMK A01 T01011026  RH  041%=      5-min Rain = 0
KMC4 210752Z 10008KT 10/M03 A2985 RMK A01 T01001026  RH  041%=      5-min Rain = 0
KMC4 210753Z 11007KT 10/M03 A2985 RMK A01 T01001026  RH  041%=      5-min Rain = 0
KMC4 210754Z 11008KT 10/M03 A2985 RMK A01 T01001026  RH  041%=      5-min Rain = 0
KMC4 210755Z 11007KT 10/M03 A2985 RMK A01 T01001027  RH  041%=      5-min Rain = 0
KMC4 210756Z 11008KT 10/M03 A2985 RMK A01 T01011027  RH  041%=      5-min Rain = 0
KMC4 210757Z 11008KT 10/M03 A2985 RMK A01 T01011027  RH  041%=      5-min Rain = 0
KMC4 210758Z 11008KT 10/M03 A2985 RMK A01 T01011026  RH  041%=      5-min Rain = 0
KMC4 210759Z 12007KT 10/M03 A2985 RMK A01 T01011027  RH  041%=      5-min Rain = 0
KMC4 210800Z 10006KT 10/M03 A2985 RMK A01 T01011027  RH  041%=      5-min Rain = 0
KMC4 210801Z 11007KT 10/M03 A2985 RMK A01 T01011027  RH  040%=      5-min Rain = 0
KMC4 210802Z 11007KT 10/M03 A2985 RMK A01 T01021027  RH  040%=      5-min Rain = 0
KMC4 210803Z 11007KT 10/M03 A2985 RMK A01 T01021027  RH  040%=      5-min Rain = 0
KMC4 210804Z 12010KT 10/M03 A2985 RMK A01 T01021027  RH  040%=      5-min Rain = 0
KMC4 210805Z 11009G14KT 10/M03 A2985 RMK A01 T01021028  RH  040%=      5-min Rain = 0
KMC4 210806Z 11010KT 10/M03 A2985 RMK A01 T01031028  RH  040%=      5-min Rain = 0
KMC4 210807Z 12010KT 10/M03 A2985 RMK A01 T01031028  RH  040%=      5-min Rain = 0
KMC4 210808Z 12008KT 10/M03 A2985 RMK A01 T01031028  RH  040%=      5-min Rain = 0
KMC4 210809Z 13010G16KT 10/M03 A2985 RMK A01 T01031028  RH  040%=      5-min Rain = 0
KMC4 210810Z 12009KT 10/M03 A2985 RMK A01 T01031028  RH  040%=      5-min Rain = 0
KMC4 210811Z 13010KT 10/M03 A2985 RMK A01 T01031028  RH  040%=      5-min Rain = 0
KMC4 210812Z 13010KT 10/M03 A2984 RMK A01 T01031028  RH  040%=      5-min Rain = 0
KMC4 210813Z 13011KT 10/M03 A2985 RMK A01 T01031028  RH  040%=      5-min Rain = 0
KMC4 210814Z 14013KT 10/M03 A2985 RMK A01 T01031029  RH  040%=      5-min Rain = 0
KMC4 210815Z 13010KT 10/M03 A2985 RMK A01 T01031029  RH  040%=      5-min Rain = 0
KMC4 210816Z 13011KT 10/M03 A2985 RMK A01 T01031029  RH  039%=      5-min Rain = 0
KMC4 210817Z 13012KT 10/M03 A2985 RMK A01 T01031029  RH  039%=      5-min Rain = 0
KMC4 210818Z 13012KT 10/M03 A2985 RMK A01 T01031028  RH  040%=      5-min Rain = 0
KMC4 210819Z 13012KT 10/M03 A2985 RMK A01 T01031029  RH  039%=      5-min Rain = 0
KMC4 210820Z 14011KT 10/M03 A2985 RMK A01 T01031029  RH  039%=      5-min Rain = 0
KMC4 210821Z 14012KT 10/M03 A2985 RMK A01 T01031029  RH  039%=      5-min Rain = 0
KMC4 210822Z 13011KT 10/M03 A2985 RMK A01 T01041029  RH  039%=      5-min Rain = 0
KMC4 210823Z 13013KT 10/M03 A2985 RMK A01 T01031029  RH  039%=      5-min Rain = 0
KMC4 210824Z 14015KT 10/M03 A2984 RMK A01 T01031029  RH  039%=      5-min Rain = 0
KMC4 210825Z 14013KT 10/M03 A2984 RMK A01 T01031030  RH  039%=      5-min Rain = 0
KMC4 210826Z 14011KT 10/M03 A2985 RMK A01 T01041029  RH  039%=      5-min Rain = 0
KMC4 210827Z 14013KT 10/M03 A2984 RMK A01 T01041030  RH  039%=      5-min Rain = 0
KMC4 210828Z 14013KT 10/M03 A2984 RMK A01 T01041030  RH  039%=      5-min Rain = 0
KMC4 210829Z 14012KT 10/M03 A2985 RMK A01 T01041030  RH  039%=      5-min Rain = 0
KMC4 210830Z 14011KT 10/M03 A2984 RMK A01 T01041030  RH  039%=      5-min Rain = 0
KMC4 210831Z 14017KT 10/M03 A2984 RMK A01 T01041030  RH  039%=      5-min Rain = 0
KMC4 210832Z 14016KT 11/M03 A2984 RMK A01 T01051030  RH  039%=      5-min Rain = 0
KMC4 210833Z 14016KT 11/M03 A2984 RMK A01 T01061031  RH  038%=      5-min Rain = 0
KMC4 210834Z 14016KT 11/M03 A2984 RMK A01 T01071031  RH  038%=      5-min Rain = 0
KMC4 210835Z 14015KT 11/M03 A2984 RMK A01 T01071031  RH  038%=      5-min Rain = 0
KMC4 210836Z 14014KT 11/M03 A2984 RMK A01 T01071031  RH  038%=      5-min Rain = 0
KMC4 210837Z 14016KT 11/M03 A2984 RMK A01 T01061031  RH  038%=      5-min Rain = 0
KMC4 210838Z 14017KT 11/M03 A2984 RMK A01 T01071031  RH  038%=      5-min Rain = 0
KMC4 210839Z 14014KT 11/M03 A2984 RMK A01 T01071031  RH  038%=      5-min Rain = 0
KMC4 210840Z 14015KT 11/M03 A2984 RMK A01 T01071031  RH  038%=      5-min Rain = 0
KMC4 210841Z 14014G20KT 11/M03 A2984 RMK A01 T01071031  RH  038%=      5-min Rain = 0
KMC4 210842Z 14017KT 11/M03 A2984 RMK A01 T01071031  RH  038%=      5-min Rain = 0
KMC4 210843Z 14015KT 11/M03 A2984 RMK A01 T01081031  RH  038%=      5-min Rain = 0
KMC4 210844Z 14016KT 11/M03 A2984 RMK A01 T01081031  RH  038%=      5-min Rain = 0
KMC4 210845Z 14016KT 11/M03 A2984 RMK A01 T01071031  RH  038%=      5-min Rain = 0
KMC4 210846Z 15015KT 11/M03 A2984 RMK A01 T01071031  RH  038%=      5-min Rain = 0
KMC4 210847Z 14016G21KT 11/M03 A2984 RMK A01 T01071032  RH  038%=      5-min Rain = 0
KMC4 210848Z 14018KT 11/M03 A2984 RMK A01 T01071032  RH  038%=      5-min Rain = 0
KMC4 210849Z 14019KT 11/M03 A2984 RMK A01 T01071032  RH  038%=      5-min Rain = 0
KMC4 210850Z 15016G21KT 11/M03 A2984 RMK A01 T01081032  RH  037%=      5-min Rain = 0
KMC4 210851Z 14017G23KT 11/M03 A2984 RMK A01 T01081032  RH  037%=      5-min Rain = 0
KMC4 210852Z 14019KT 11/M03 A2984 RMK A01 T01081032  RH  037%=      5-min Rain = 0
KMC4 210853Z 15018KT 11/M03 A2984 RMK A01 T01081032  RH  037%=      5-min Rain = 0
KMC4 210854Z 15018KT 11/M03 A2984 RMK A01 T01081032  RH  037%=      5-min Rain = 0
KMC4 210855Z 15018KT 11/M03 A2984 RMK A01 T01091032  RH  037%=      5-min Rain = 0
KMC4 210856Z 15016KT 11/M03 A2984 RMK A01 T01091033  RH  037%=      5-min Rain = 0
KMC4 210857Z 14017KT 11/M03 A2984 RMK A01 T01091032  RH  037%=      5-min Rain = 0
KMC4 210858Z 14020KT 11/M03 A2983 RMK A01 T01081032  RH  037%=      5-min Rain = 0
KMC4 210859Z 15022KT 11/M03 A2983 RMK A01 T01081032  RH  037%=      5-min Rain = 0
KMC4 210900Z 14019G24KT 11/M03 A2983 RMK A01 T01091032  RH  037%=      5-min Rain = 0
KMC4 210901Z 15017KT 11/M03 A2983 RMK A01 T01091033  RH  037%=      5-min Rain = 0
KMC4 210902Z 15018KT 11/M03 A2983 RMK A01 T01091032  RH  037%=      5-min Rain = 0
KMC4 210903Z 15021KT 11/M03 A2983 RMK A01 T01091032  RH  037%=      5-min Rain = 0
KMC4 210904Z 14018KT 11/M03 A2983 RMK A01 T01091033  RH  037%=      5-min Rain = 0
KMC4 210905Z 15019KT 11/M03 A2983 RMK A01 T01091033  RH  037%=      5-min Rain = 0
KMC4 210906Z 14017KT 11/M03 A2983 RMK A01 T01091033  RH  037%=      5-min Rain = 0
KMC4 210907Z 14019G25KT 11/M03 A2983 RMK A01 T01091033  RH  037%=      5-min Rain = 0
KMC4 210908Z 15018KT 11/M03 A2983 RMK A01 T01091033  RH  037%=      5-min Rain = 0
KMC4 210909Z 14019KT 11/M03 A2983 RMK A01 T01091033  RH  037%=      5-min Rain = 0
KMC4 210910Z 14018KT 11/M03 A2983 RMK A01 T01091033  RH  037%=      5-min Rain = 0
KMC4 210911Z 15016G21KT 11/M03 A2984 RMK A01 T01091032  RH  037%=      5-min Rain = 0
KMC4 210912Z 15017KT 11/M03 A2983 RMK A01 T01081032  RH  037%=      5-min Rain = 0
KMC4 210913Z 15018KT 11/M03 A2983 RMK A01 T01081032  RH  037%=      5-min Rain = 0
KMC4 210914Z 15018KT 11/M03 A2983 RMK A01 T01081033  RH  037%=      5-min Rain = 0
KMC4 210915Z 15019KT 11/M03 A2983 RMK A01 T01091032  RH  037%=      5-min Rain = 0
KMC4 210916Z 15021KT 11/M03 A2983 RMK A01 T01091033  RH  037%=      5-min Rain = 0
KMC4 210917Z 14018KT 11/M03 A2983 RMK A01 T01101033  RH  037%=      5-min Rain = 0
KMC4 210918Z 15020KT 11/M03 A2983 RMK A01 T01101033  RH  037%=      5-min Rain = 0
KMC4 210919Z 15017KT 11/M03 A2983 RMK A01 T01101033  RH  037%=      5-min Rain = 0
KMC4 210920Z 14021G26KT 11/M03 A2983 RMK A01 T01101033  RH  037%=      5-min Rain = 0
KMC4 210921Z 14020KT 11/M03 A2983 RMK A01 T01101033  RH  037%=      5-min Rain = 0
KMC4 210922Z 14017KT 11/M03 A2983 RMK A01 T01101033  RH  037%=      5-min Rain = 0
KMC4 210923Z 15017KT 11/M03 A2983 RMK A01 T01091033  RH  037%=      5-min Rain = 0
KMC4 210924Z 14021KT 11/M03 A2983 RMK A01 T01091033  RH  037%=      5-min Rain = 0
KMC4 210925Z 14021G26KT 11/M03 A2983 RMK A01 T01091033  RH  037%=      5-min Rain = 0
KMC4 210926Z 14021G27KT 11/M03 A2982 RMK A01 T01101033  RH  037%=      5-min Rain = 0
KMC4 210927Z 14022KT 11/M03 A2983 RMK A01 T01101033  RH  037%=      5-min Rain = 0
KMC4 210928Z 14020KT 11/M03 A2982 RMK A01 T01101033  RH  037%=      5-min Rain = 0
KMC4 210929Z 15023KT 11/M03 A2982 RMK A01 T01101033  RH  036%=      5-min Rain = 0
KMC4 210930Z 14019KT 11/M03 A2982 RMK A01 T01101033  RH  036%=      5-min Rain = 0
KMC4 210931Z 14020KT 11/M03 A2982 RMK A01 T01101033  RH  036%=      5-min Rain = 0
KMC4 210932Z 14021G26KT 11/M03 A2982 RMK A01 T01101033  RH  037%=      5-min Rain = 0
KMC4 210933Z 14023KT 11/M03 A2982 RMK A01 T01091033  RH  037%=      5-min Rain = 0
KMC4 210934Z 14022KT 11/M03 A2982 RMK A01 T01091033  RH  037%=      5-min Rain = 0
KMC4 210935Z 14022KT 11/M03 A2982 RMK A01 T01091033  RH  037%=      5-min Rain = 0
KMC4 210936Z 14022G27KT 11/M03 A2982 RMK A01 T01091033  RH  037%=      5-min Rain = 0
KMC4 210937Z 15021KT 11/M03 A2982 RMK A01 T01091033  RH  037%=      5-min Rain = 0
KMC4 210938Z 14024KT 11/M03 A2982 RMK A01 T01091034  RH  037%=      5-min Rain = 0
KMC4 210939Z 14020G25KT 11/M03 A2982 RMK A01 T01101033  RH  036%=      5-min Rain = 0
KMC4 210940Z 15020G25KT 11/M03 A2982 RMK A01 T01101034  RH  036%=      5-min Rain = 0
KMC4 210941Z 14021G27KT 11/M03 A2982 RMK A01 T01101033  RH  036%=      5-min Rain = 0
KMC4 210942Z 14022KT 11/M03 A2982 RMK A01 T01101034  RH  036%=      5-min Rain = 0
KMC4 210943Z 14020G25KT 11/M03 A2982 RMK A01 T01101033  RH  036%=      5-min Rain = 0
KMC4 210944Z 14020G25KT 11/M03 A2982 RMK A01 T01101033  RH  037%=      5-min Rain = 0
KMC4 210945Z 15020KT 11/M03 A2982 RMK A01 T01101033  RH  037%=      5-min Rain = 0
KMC4 210946Z 15016KT 11/M03 A2982 RMK A01 T01091033  RH  037%=      5-min Rain = 0
KMC4 210947Z 14022KT 11/M03 A2982 RMK A01 T01081033  RH  037%=      5-min Rain = 0
KMC4 210948Z 15020G25KT 11/M03 A2982 RMK A01 T01091033  RH  037%=      5-min Rain = 0
KMC4 210949Z 15021KT 11/M03 A2982 RMK A01 T01091033  RH  037%=      5-min Rain = 0
KMC4 210950Z 15018KT 11/M03 A2982 RMK A01 T01091034  RH  037%=      5-min Rain = 0
KMC4 210951Z 15019KT 11/M03 A2982 RMK A01 T01091033  RH  037%=      5-min Rain = 0
KMC4 210952Z 15017KT 11/M03 A2982 RMK A01 T01091033  RH  037%=      5-min Rain = 0
KMC4 210953Z 15021KT 11/M03 A2982 RMK A01 T01081034  RH  037%=      5-min Rain = 0
KMC4 210954Z 15020KT 11/M03 A2982 RMK A01 T01091034  RH  037%=      5-min Rain = 0
KMC4 210955Z 15019G24KT 11/M03 A2982 RMK A01 T01091033  RH  037%=      5-min Rain = 0
KMC4 210956Z 15017KT 11/M03 A2982 RMK A01 T01091034  RH  037%=      5-min Rain = 0
KMC4 210957Z 15015KT 11/M03 A2982 RMK A01 T01081034  RH  037%=      5-min Rain = 0
KMC4 210958Z 15016G21KT 11/M03 A2982 RMK A01 T01081034  RH  037%=      5-min Rain = 0
KMC4 210959Z 14016KT 11/M03 A2982 RMK A01 T01081034  RH  037%=      5-min Rain = 0
KMC4 211000Z 14014KT 11/M03 A2982 RMK A01 T01081034  RH  037%=      5-min Rain = 0
KMC4 211001Z 15012KT 11/M03 A2982 RMK A01 T01081034  RH  037%=      5-min Rain = 0
KMC4 211002Z 15012KT 11/M03 A2982 RMK A01 T01081033  RH  037%=      5-min Rain = 0
KMC4 211003Z 15011KT 11/M03 A2982 RMK A01 T01071034  RH  037%=      5-min Rain = 0
KMC4 211004Z 15012KT 11/M03 A2982 RMK A01 T01071034  RH  037%=      5-min Rain = 0
KMC4 211005Z 14014KT 11/M03 A2982 RMK A01 T01071034  RH  037%=      5-min Rain = 0
KMC4 211006Z 15014KT 11/M03 A2982 RMK A01 T01071034  RH  037%=      5-min Rain = 0
KMC4 211007Z 15011KT 11/M03 A2982 RMK A01 T01071034  RH  037%=      5-min Rain = 0
KMC4 211008Z 14015KT 11/M03 A2982 RMK A01 T01071034  RH  037%=      5-min Rain = 0
KMC4 211009Z 14016KT 11/M03 A2982 RMK A01 T01081034  RH  037%=      5-min Rain = 0
KMC4 211010Z 15015KT 11/M03 A2982 RMK A01 T01091034  RH  037%=      5-min Rain = 0
KMC4 211011Z 15012KT 11/M03 A2983 RMK A01 T01091034  RH  037%=      5-min Rain = 0
KMC4 211012Z 15013KT 11/M03 A2983 RMK A01 T01091034  RH  037%=      5-min Rain = 0
KMC4 211013Z 15014KT 11/M03 A2983 RMK A01 T01091034  RH  037%=      5-min Rain = 0
KMC4 211014Z 14012G17KT 11/M03 A2983 RMK A01 T01091034  RH  036%=      5-min Rain = 0
KMC4 211015Z 14011G16KT 11/M03 A2983 RMK A01 T01101034  RH  036%=      5-min Rain = 0
KMC4 211016Z 14012G18KT 11/M03 A2983 RMK A01 T01101034  RH  036%=      5-min Rain = 0
KMC4 211017Z 15013KT 11/M03 A2983 RMK A01 T01101034  RH  036%=      5-min Rain = 0
KMC4 211018Z 13012G18KT 11/M03 A2983 RMK A01 T01101034  RH  036%=      5-min Rain = 0
KMC4 211019Z 14013G18KT 11/M03 A2983 RMK A01 T01101034  RH  036%=      5-min Rain = 0
KMC4 211020Z 14010KT 11/M03 A2983 RMK A01 T01101034  RH  036%=      5-min Rain = 0
KMC4 211021Z 13010KT 11/M03 A2983 RMK A01 T01101034  RH  036%=      5-min Rain = 0
KMC4 211022Z 12008KT 11/M03 A2983 RMK A01 T01101034  RH  036%=      5-min Rain = 0
KMC4 211023Z 11006KT 11/M03 A2983 RMK A01 T01101034  RH  036%=      5-min Rain = 0
KMC4 211024Z 11006KT 11/M03 A2983 RMK A01 T01101033  RH  036%=      5-min Rain = 0
KMC4 211025Z 13010KT 11/M03 A2983 RMK A01 T01101033  RH  037%=      5-min Rain = 0
KMC4 211026Z 12009KT 11/M03 A2983 RMK A01 T01101033  RH  037%=      5-min Rain = 0
KMC4 211027Z 09006KT 11/M03 A2983 RMK A01 T01091033  RH  037%=      5-min Rain = 0
KMC4 211028Z 11008KT 11/M03 A2983 RMK A01 T01091033  RH  037%=      5-min Rain = 0
KMC4 211029Z 08005KT 11/M03 A2983 RMK A01 T01091033  RH  037%=      5-min Rain = 0
KMC4 211030Z 10007KT 11/M03 A2983 RMK A01 T01091032  RH  037%=      5-min Rain = 0
KMC4 211031Z 06007KT 11/M03 A2983 RMK A01 T01081033  RH  037%=      5-min Rain = 0
KMC4 211032Z 05007KT 11/M03 A2983 RMK A01 T01081032  RH  037%=      5-min Rain = 0
KMC4 211033Z 07007KT 11/M03 A2983 RMK A01 T01071032  RH  038%=      5-min Rain = 0
KMC4 211034Z 07006KT 11/M03 A2983 RMK A01 T01061032  RH  038%=      5-min Rain = 0
KMC4 211035Z 10007KT 11/M03 A2983 RMK A01 T01061032  RH  038%=      5-min Rain = 0
KMC4 211036Z 07007KT 11/M03 A2983 RMK A01 T01061032  RH  038%=      5-min Rain = 0
KMC4 211037Z 04008KT 11/M03 A2983 RMK A01 T01051032  RH  038%=      5-min Rain = 0
KMC4 211038Z 07008KT 11/M03 A2983 RMK A01 T01051032  RH  038%=      5-min Rain = 0
KMC4 211039Z 07007KT 10/M03 A2983 RMK A01 T01041032  RH  038%=      5-min Rain = 0
KMC4 211040Z 06008KT 10/M03 A2983 RMK A01 T01041032  RH  038%=      5-min Rain = 0
KMC4 211041Z 07006KT 10/M03 A2983 RMK A01 T01041031  RH  038%=      5-min Rain = 0
KMC4 211042Z 07006KT 10/M03 A2983 RMK A01 T01041031  RH  039%=      5-min Rain = 0
KMC4 211043Z 08006KT 10/M03 A2983 RMK A01 T01041031  RH  039%=      5-min Rain = 0
KMC4 211044Z 07008KT 10/M03 A2983 RMK A01 T01041031  RH  039%=      5-min Rain = 0
KMC4 211045Z 08007KT 10/M03 A2982 RMK A01 T01031031  RH  039%=      5-min Rain = 0
KMC4 211046Z 07005KT 10/M03 A2983 RMK A01 T01031031  RH  039%=      5-min Rain = 0
KMC4 211047Z 06007KT 10/M03 A2983 RMK A01 T01031031  RH  039%=      5-min Rain = 0
KMC4 211048Z 06006KT 10/M03 A2982 RMK A01 T01031031  RH  039%=      5-min Rain = 0
KMC4 211049Z 06007KT 10/M03 A2982 RMK A01 T01031031  RH  039%=      5-min Rain = 0
KMC4 211050Z 08011KT 10/M03 A2982 RMK A01 T01041031  RH  039%=      5-min Rain = 0
KMC4 211051Z 07009G14KT 11/M03 A2982 RMK A01 T01051031  RH  038%=      5-min Rain = 0
KMC4 211052Z 07012KT 11/M03 A2982 RMK A01 T01051031  RH  038%=      5-min Rain = 0
KMC4 211053Z 08012KT 11/M03 A2982 RMK A01 T01051031  RH  038%=      5-min Rain = 0
KMC4 211054Z 08009KT 11/M03 A2982 RMK A01 T01051031  RH  038%=      5-min Rain = 0
KMC4 211055Z 07009KT 11/M03 A2982 RMK A01 T01051031  RH  038%=      5-min Rain = 0
KMC4 211056Z 07009KT 11/M03 A2982 RMK A01 T01051030  RH  039%=      5-min Rain = 0
KMC4 211057Z 08012KT 11/M03 A2982 RMK A01 T01051030  RH  039%=      5-min Rain = 0
KMC4 211058Z 08012KT 10/M03 A2982 RMK A01 T01041030  RH  039%=      5-min Rain = 0
KMC4 211059Z 07010KT 11/M03 A2982 RMK A01 T01051030  RH  039%=      5-min Rain = 0
KMC4 211100Z 09010KT 11/M03 A2982 RMK A01 T01051030  RH  039%=      5-min Rain = 0
KMC4 211101Z 08011KT 11/M03 A2982 RMK A01 T01051030  RH  039%=      5-min Rain = 0
KMC4 211102Z 09013KT 11/M03 A2982 RMK A01 T01051030  RH  039%=      5-min Rain = 0
KMC4 211103Z 09012KT 11/M03 A2982 RMK A01 T01051030  RH  039%=      5-min Rain = 0
KMC4 211104Z 09010KT 11/M03 A2982 RMK A01 T01051030  RH  039%=      5-min Rain = 0
KMC4 211105Z 09012KT 11/M03 A2982 RMK A01 T01051030  RH  039%=      5-min Rain = 0
KMC4 211106Z 09012KT 11/M03 A2982 RMK A01 T01051030  RH  039%=      5-min Rain = 0
KMC4 211107Z 09013KT 11/M03 A2982 RMK A01 T01051029  RH  039%=      5-min Rain = 0
KMC4 211108Z 10012KT 11/M03 A2982 RMK A01 T01051030  RH  039%=      5-min Rain = 0
KMC4 211109Z 10012KT 11/M03 A2982 RMK A01 T01051030  RH  039%=      5-min Rain = 0
KMC4 211110Z 10012KT 11/M03 A2982 RMK A01 T01051029  RH  039%=      5-min Rain = 0
KMC4 211111Z 09011KT 11/M03 A2982 RMK A01 T01051029  RH  039%=      5-min Rain = 0
KMC4 211112Z 10014KT 11/M03 A2982 RMK A01 T01051029  RH  039%=      5-min Rain = 0
KMC4 211113Z 11012KT 11/M03 A2982 RMK A01 T01051029  RH  039%=      5-min Rain = 0
KMC4 211114Z 11013KT 11/M03 A2982 RMK A01 T01051029  RH  039%=      5-min Rain = 0
KMC4 211115Z 12011KT 11/M03 A2982 RMK A01 T01051029  RH  039%=      5-min Rain = 0
KMC4 211116Z 12012KT 11/M03 A2982 RMK A01 T01051029  RH  039%=      5-min Rain = 0
KMC4 211117Z 12012G17KT 10/M03 A2982 RMK A01 T01041029  RH  039%=      5-min Rain = 0
KMC4 211118Z 12015KT 10/M03 A2982 RMK A01 T01041029  RH  039%=      5-min Rain = 0
KMC4 211119Z 12013KT 10/M03 A2982 RMK A01 T01041029  RH  039%=      5-min Rain = 0
KMC4 211120Z 13015KT 10/M03 A2982 RMK A01 T01041028  RH  039%=      5-min Rain = 0
KMC4 211121Z 13015G20KT 10/M03 A2982 RMK A01 T01041028  RH  039%=      5-min Rain = 0
KMC4 211122Z 13015G20KT 10/M03 A2982 RMK A01 T01041028  RH  039%=      5-min Rain = 0
KMC4 211123Z 13018KT 10/M03 A2982 RMK A01 T01041029  RH  039%=      5-min Rain = 0
KMC4 211124Z 13015KT 10/M03 A2982 RMK A01 T01041028  RH  039%=      5-min Rain = 0
KMC4 211125Z 13017KT 10/M03 A2982 RMK A01 T01041028  RH  039%=      5-min Rain = 0
KMC4 211126Z 14016KT 10/M03 A2981 RMK A01 T01031028  RH  040%=      5-min Rain = 0
KMC4 211127Z 13015KT 10/M03 A2981 RMK A01 T01031028  RH  040%=      5-min Rain = 0
KMC4 211128Z 14017KT 10/M03 A2982 RMK A01 T01031028  RH  040%=      5-min Rain = 0
KMC4 211129Z 13018KT 10/M03 A2981 RMK A01 T01031028  RH  040%=      5-min Rain = 0
KMC4 211130Z 14014KT 10/M03 A2982 RMK A01 T01031028  RH  040%=      5-min Rain = 0
KMC4 211131Z 14017KT 10/M03 A2982 RMK A01 T01021028  RH  040%=      5-min Rain = 0
KMC4 211132Z 14017KT 10/M03 A2982 RMK A01 T01021028  RH  040%=      5-min Rain = 0
KMC4 211133Z 14018KT 10/M03 A2982 RMK A01 T01021027  RH  040%=      5-min Rain = 0
KMC4 211134Z 14018KT 10/M03 A2982 RMK A01 T01021027  RH  040%=      5-min Rain = 0
KMC4 211135Z 14019KT 10/M03 A2981 RMK A01 T01011027  RH  040%=      5-min Rain = 0
KMC4 211136Z 14018KT 10/M03 A2982 RMK A01 T01011027  RH  040%=      5-min Rain = 0
KMC4 211137Z 14016KT 10/M03 A2982 RMK A01 T01011027  RH  040%=      5-min Rain = 0
KMC4 211138Z 14018KT 10/M03 A2981 RMK A01 T01011027  RH  041%=      5-min Rain = 0
KMC4 211139Z 14017KT 10/M03 A2982 RMK A01 T01011027  RH  041%=      5-min Rain = 0
KMC4 211140Z 13020KT 10/M03 A2981 RMK A01 T01001027  RH  041%=      5-min Rain = 0
KMC4 211141Z 14017KT 10/M03 A2981 RMK A01 T01011027  RH  041%=      5-min Rain = 0
KMC4 211142Z 13017KT 10/M03 A2981 RMK A01 T01001027  RH  041%=      5-min Rain = 0
KMC4 211143Z 14019KT 10/M03 A2981 RMK A01 T01001027  RH  041%=      5-min Rain = 0
KMC4 211144Z 13018KT 10/M03 A2981 RMK A01 T01001027  RH  041%=      5-min Rain = 0
KMC4 211145Z 13017KT 10/M03 A2981 RMK A01 T01001027  RH  041%=      5-min Rain = 0
KMC4 211146Z 14017KT 10/M03 A2982 RMK A01 T01001027  RH  041%=      5-min Rain = 0
KMC4 211147Z 14017KT 10/M03 A2981 RMK A01 T01001026  RH  041%=      5-min Rain = 0
KMC4 211148Z 14018KT 10/M03 A2981 RMK A01 T01001026  RH  041%=      5-min Rain = 0
KMC4 211149Z 14017KT 10/M03 A2981 RMK A01 T01001027  RH  041%=      5-min Rain = 0
KMC4 211150Z 14018KT 10/M03 A2981 RMK A01 T01001026  RH  041%=      5-min Rain = 0
KMC4 211151Z 13018KT 10/M03 A2981 RMK A01 T01001026  RH  041%=      5-min Rain = 0
KMC4 211152Z 14016KT 10/M03 A2981 RMK A01 T01001026  RH  041%=      5-min Rain = 0
KMC4 211153Z 14018G23KT 10/M03 A2981 RMK A01 T00991026  RH  041%=      5-min Rain = 0
KMC4 211154Z 14017KT 10/M03 A2981 RMK A01 T00991026  RH  041%=      5-min Rain = 0
KMC4 211155Z 13019KT 10/M03 A2981 RMK A01 T01001026  RH  041%=      5-min Rain = 0
KMC4 211156Z 14017KT 10/M03 A2981 RMK A01 T01001026  RH  041%=      5-min Rain = 0
KMC4 211157Z 14016KT 10/M03 A2981 RMK A01 T01001026  RH  041%=      5-min Rain = 0
KMC4 211158Z 14015KT 10/M03 A2982 RMK A01 T01001026  RH  041%=      5-min Rain = 0
KMC4 211159Z 14016KT 10/M03 A2981 RMK A01 T00991026  RH  041%=      5-min Rain = 0
KMC4 211200Z 13017KT 10/M03 A2981 RMK A01 T00991026  RH  042%=      5-min Rain = 0
KMC4 211201Z 13015KT 10/M03 A2981 RMK A01 T00991025  RH  042%=      5-min Rain = 0
KMC4 211202Z 14017KT 10/M03 A2981 RMK A01 T00991025  RH  042%=      5-min Rain = 0
KMC4 211203Z 13017KT 10/M03 A2981 RMK A01 T00981025  RH  042%=      5-min Rain = 0
KMC4 211204Z 14015KT 10/M03 A2981 RMK A01 T00981025  RH  042%=      5-min Rain = 0
KMC4 211205Z 13014KT 10/M03 A2981 RMK A01 T00981025  RH  042%=      5-min Rain = 0
KMC4 211206Z 13015KT 10/M03 A2981 RMK A01 T00981025  RH  042%=      5-min Rain = 0
KMC4 211207Z 13013KT 10/M03 A2981 RMK A01 T00981025  RH  042%=      5-min Rain = 0
KMC4 211208Z 14015G21KT 10/M02 A2981 RMK A01 T00981024  RH  042%=      5-min Rain = 0
KMC4 211209Z 13015KT 10/M02 A2981 RMK A01 T00981024  RH  042%=      5-min Rain = 0
KMC4 211210Z 13014KT 10/M02 A2981 RMK A01 T00981024  RH  042%=      5-min Rain = 0
KMC4 211211Z 13016KT 10/M02 A2982 RMK A01 T00981024  RH  042%=      5-min Rain = 0
KMC4 211212Z 13013KT 10/M02 A2982 RMK A01 T00981024  RH  043%=      5-min Rain = 0
KMC4 211213Z 13016KT 10/M02 A2981 RMK A01 T00971024  RH  043%=      5-min Rain = 0
KMC4 211214Z 13013G19KT 10/M02 A2981 RMK A01 T00981024  RH  042%=      5-min Rain = 0
KMC4 211215Z 13014KT 10/M02 A2981 RMK A01 T00981024  RH  042%=      5-min Rain = 0
KMC4 211216Z 13014KT 10/M02 A2981 RMK A01 T00981024  RH  042%=      5-min Rain = 0
KMC4 211217Z 12012G17KT 10/M02 A2981 RMK A01 T00981024  RH  042%=      5-min Rain = 0
KMC4 211218Z 14012KT 10/M02 A2981 RMK A01 T00981024  RH  043%=      5-min Rain = 0
KMC4 211219Z 13013G19KT 10/M02 A2981 RMK A01 T00981023  RH  043%=      5-min Rain = 0
KMC4 211220Z 13016KT 10/M02 A2981 RMK A01 T00981023  RH  043%=      5-min Rain = 0
KMC4 211221Z 13015KT 10/M02 A2981 RMK A01 T00981023  RH  043%=      5-min Rain = 0
KMC4 211222Z 13012KT 10/M02 A2981 RMK A01 T00981023  RH  043%=      5-min Rain = 0
KMC4 211223Z 13012KT 10/M02 A2981 RMK A01 T00981023  RH  043%=      5-min Rain = 0
KMC4 211224Z 13012KT 10/M02 A2982 RMK A01 T00981023  RH  043%=      5-min Rain = 0
KMC4 211225Z 13012KT 10/M02 A2982 RMK A01 T00981022  RH  043%=      5-min Rain = 0
KMC4 211226Z 13013KT 10/M02 A2981 RMK A01 T00981022  RH  043%=      5-min Rain = 0
KMC4 211227Z 13012KT 10/M02 A2981 RMK A01 T00981022  RH  043%=      5-min Rain = 0
KMC4 211228Z 13014KT 10/M02 A2981 RMK A01 T00981023  RH  043%=      5-min Rain = 0
KMC4 211229Z 13012KT 10/M02 A2981 RMK A01 T00981023  RH  043%=      5-min Rain = 0
KMC4 211230Z 13014KT 10/M02 A2981 RMK A01 T00981022  RH  043%=      5-min Rain = 0
KMC4 211231Z 13013KT 10/M02 A2981 RMK A01 T00981022  RH  043%=      5-min Rain = 0
KMC4 211232Z 13014KT 10/M02 A2981 RMK A01 T00981023  RH  043%=      5-min Rain = 0
KMC4 211233Z 13013KT 10/M02 A2981 RMK A01 T00991022  RH  043%=      5-min Rain = 0
KMC4 211234Z 13012KT 10/M02 A2981 RMK A01 T00991022  RH  043%=      5-min Rain = 0
KMC4 211235Z 13014KT 10/M02 A2981 RMK A01 T00991022  RH  043%=      5-min Rain = 0
KMC4 211236Z 13012KT 10/M02 A2981 RMK A01 T00991022  RH  043%=      5-min Rain = 0
KMC4 211237Z 13014G22KT 10/M02 A2981 RMK A01 T00991022  RH  043%=      5-min Rain = 0
KMC4 211238Z 13013KT 10/M02 A2981 RMK A01 T00991022  RH  043%=      5-min Rain = 0
KMC4 211239Z 13014KT 10/M02 A298 RMK A01 T00991022  RH  043%=      5-min Rain = 0
KMC4 211240Z 13016KT 10/M02 A298 RMK A01 T00991022  RH  042%=      5-min Rain = 0
KMC4 211241Z 14017G22KT 10/M02 A298 RMK A01 T01001022  RH  042%=      5-min Rain = 0
KMC4 211242Z 14013KT 10/M02 A2981 RMK A01 T01011022  RH  042%=      5-min Rain = 0
KMC4 211243Z 14014KT 10/M02 A2981 RMK A01 T01001022  RH  042%=      5-min Rain = 0
KMC4 211244Z 14015KT 10/M02 A2981 RMK A01 T01011022  RH  042%=      5-min Rain = 0
KMC4 211245Z 14013KT 10/M02 A2981 RMK A01 T01011022  RH  042%=      5-min Rain = 0
KMC4 211246Z 14014KT 10/M02 A2981 RMK A01 T01011022  RH  042%=      5-min Rain = 0
KMC4 211247Z 14017KT 10/M02 A2981 RMK A01 T01011022  RH  042%=      5-min Rain = 0
KMC4 211248Z 14014KT 10/M02 A2981 RMK A01 T01021022  RH  042%=      5-min Rain = 0
KMC4 211249Z 14013KT 10/M02 A2981 RMK A01 T01021022  RH  042%=      5-min Rain = 0
KMC4 211250Z 14015KT 10/M02 A2981 RMK A01 T01021022  RH  042%=      5-min Rain = 0
KMC4 211251Z 14015KT 10/M02 A2982 RMK A01 T01021022  RH  042%=      5-min Rain = 0
KMC4 211252Z 15014KT 10/M02 A2982 RMK A01 T01021022  RH  042%=      5-min Rain = 0
KMC4 211253Z 15013KT 10/M02 A2982 RMK A01 T01021022  RH  042%=      5-min Rain = 0
KMC4 211254Z 14012KT 10/M02 A2982 RMK A01 T01021022  RH  042%=      5-min Rain = 0
KMC4 211255Z 14012KT 10/M02 A2982 RMK A01 T01021021  RH  042%=      5-min Rain = 0
KMC4 211256Z 14011KT 10/M02 A2982 RMK A01 T01021021  RH  042%=      5-min Rain = 0
KMC4 211257Z 14014KT 10/M02 A2982 RMK A01 T01021021  RH  042%=      5-min Rain = 0
KMC4 211258Z 15011KT 10/M02 A2982 RMK A01 T01021022  RH  042%=      5-min Rain = 0
KMC4 211259Z 14012KT 10/M02 A2982 RMK A01 T01021021  RH  042%=      5-min Rain = 0
KMC4 211300Z 15010KT 10/M02 A2983 RMK A01 T01031021  RH  042%=      5-min Rain = 0
KMC4 211301Z 15011KT 10/M02 A2983 RMK A01 T01021021  RH  042%=      5-min Rain = 0
KMC4 211302Z 15012KT 10/M02 A2983 RMK A01 T01021021  RH  042%=      5-min Rain = 0
KMC4 211303Z 14009KT 10/M02 A2983 RMK A01 T01021021  RH  042%=      5-min Rain = 0
KMC4 211304Z 15010KT 10/M02 A2983 RMK A01 T01021021  RH  042%=      5-min Rain = 0
KMC4 211305Z 14009KT 10/M02 A2983 RMK A01 T01021021  RH  042%=      5-min Rain = 0
KMC4 211306Z 14012KT 10/M02 A2983 RMK A01 T01021021  RH  042%=      5-min Rain = 0
KMC4 211307Z 15010KT 10/M02 A2983 RMK A01 T01021021  RH  042%=      5-min Rain = 0
KMC4 211308Z 15008KT 10/M02 A2984 RMK A01 T01021020  RH  042%=      5-min Rain = 0
KMC4 211309Z 14006KT 10/M02 A2984 RMK A01 T01011021  RH  042%=      5-min Rain = 0
KMC4 211310Z 15007KT 10/M02 A2984 RMK A01 T01011021  RH  042%=      5-min Rain = 0
KMC4 211311Z 16004KT 10/M02 A2984 RMK A01 T01011020  RH  043%=      5-min Rain = 0
KMC4 211312Z 16008KT 10/M02 A2984 RMK A01 T01021020  RH  043%=      5-min Rain = 0
KMC4 211313Z 16007KT 10/M02 A2984 RMK A01 T01011020  RH  042%=      5-min Rain = 0
KMC4 211314Z 16005KT 10/M02 A2984 RMK A01 T01021020  RH  042%=      5-min Rain = 0
KMC4 211315Z 14004KT 10/M02 A2984 RMK A01 T01011020  RH  043%=      5-min Rain = 0
KMC4 211316Z 12004KT 10/M02 A2984 RMK A01 T01011020  RH  043%=      5-min Rain = 0
KMC4 211317Z 13005KT 10/M02 A2984 RMK A01 T01001020  RH  043%=      5-min Rain = 0
KMC4 211318Z 13004KT 10/M02 A2984 RMK A01 T01001020  RH  043%=      5-min Rain = 0
KMC4 211319Z 13007KT 10/M02 A2984 RMK A01 T01001020  RH  043%=      5-min Rain = 0
KMC4 211320Z 13009KT 10/M02 A2983 RMK A01 T01001020  RH  043%=      5-min Rain = 0
KMC4 211321Z 14011KT 10/M02 A2983 RMK A01 T01001020  RH  043%=      5-min Rain = 0
KMC4 211322Z 14011KT 10/M02 A2983 RMK A01 T01001020  RH  043%=      5-min Rain = 0
KMC4 211323Z 13011KT 10/M02 A2983 RMK A01 T01001020  RH  043%=      5-min Rain = 0
KMC4 211324Z 13012KT 10/M02 A2983 RMK A01 T01001020  RH  043%=      5-min Rain = 0
KMC4 211325Z 13012KT 10/M02 A2982 RMK A01 T01001020  RH  043%=      5-min Rain = 0
KMC4 211326Z 12011KT 10/M02 A2982 RMK A01 T01001020  RH  043%=      5-min Rain = 0
KMC4 211327Z 12012KT 10/M02 A2982 RMK A01 T00991020  RH  043%=      5-min Rain = 0
KMC4 211328Z 13013KT 10/M02 A2982 RMK A01 T00991020  RH  043%=      5-min Rain = 0
KMC4 211329Z 13013KT 10/M02 A2982 RMK A01 T00991020  RH  043%=      5-min Rain = 0
KMC4 211330Z 13015KT 10/M02 A2982 RMK A01 T01001021  RH  043%=      5-min Rain = 0
KMC4 211331Z 12010G15KT 10/M02 A2982 RMK A01 T01001021  RH  043%=      5-min Rain = 0
KMC4 211332Z 12010KT 10/M02 A2982 RMK A01 T01001020  RH  043%=      5-min Rain = 0
KMC4 211333Z 12012KT 10/M02 A2982 RMK A01 T01001020  RH  043%=      5-min Rain = 0
KMC4 211334Z 13010G15KT 10/M02 A2982 RMK A01 T01001020  RH  043%=      5-min Rain = 0
KMC4 211335Z 12008KT 10/M02 A2982 RMK A01 T01001020  RH  043%=      5-min Rain = 0
KMC4 211336Z 11009KT 10/M02 A2983 RMK A01 T01001020  RH  043%=      5-min Rain = 0
KMC4 211337Z 14009KT 10/M02 A2983 RMK A01 T01001019  RH  043%=      5-min Rain = 0
KMC4 211338Z 14010KT 10/M02 A2983 RMK A01 T00991019  RH  044%=      5-min Rain = 0
KMC4 211339Z 13010KT 10/M02 A2983 RMK A01 T00991020  RH  043%=      5-min Rain = 0
KMC4 211340Z 12007KT 10/M02 A2983 RMK A01 T00991020  RH  043%=      5-min Rain = 0
KMC4 211341Z 12006KT 10/M02 A2983 RMK A01 T00991020  RH  044%=      5-min Rain = 0
KMC4 211342Z 12007KT 10/M02 A2983 RMK A01 T00981019  RH  044%=      5-min Rain = 0
KMC4 211343Z 13006KT 10/M02 A2983 RMK A01 T00981020  RH  044%=      5-min Rain = 0
KMC4 211344Z 12005KT 10/M02 A2983 RMK A01 T00981020  RH  044%=      5-min Rain = 0
KMC4 211345Z 11007KT 10/M02 A2983 RMK A01 T00981020  RH  044%=      5-min Rain = 0
KMC4 211346Z 12006KT 10/M02 A2983 RMK A01 T00991020  RH  044%=      5-min Rain = 0
KMC4 211347Z 11006KT 10/M02 A2983 RMK A01 T00991019  RH  044%=      5-min Rain = 0
KMC4 211348Z 11007KT 10/M02 A2983 RMK A01 T00991019  RH  044%=      5-min Rain = 0
KMC4 211349Z 11007KT 10/M02 A2983 RMK A01 T00991019  RH  044%=      5-min Rain = 0
KMC4 211350Z 12009KT 10/M02 A2983 RMK A01 T00991019  RH  044%=      5-min Rain = 0
KMC4 211351Z 11007KT 10/M02 A2982 RMK A01 T00991020  RH  044%=      5-min Rain = 0
KMC4 211352Z 11008KT 10/M02 A2982 RMK A01 T00991020  RH  044%=      5-min Rain = 0
KMC4 211353Z 11011KT 10/M02 A2982 RMK A01 T00991019  RH  044%=      5-min Rain = 0
KMC4 211354Z 12009KT 10/M02 A2982 RMK A01 T00991019  RH  043%=      5-min Rain = 0
KMC4 211355Z 12008KT 10/M02 A2983 RMK A01 T00991020  RH  043%=      5-min Rain = 0
KMC4 211356Z 11007KT 10/M02 A2983 RMK A01 T00991020  RH  043%=      5-min Rain = 0
KMC4 211357Z 12007KT 10/M02 A2983 RMK A01 T01001020  RH  043%=      5-min Rain = 0
KMC4 211358Z 12009KT 10/M02 A2983 RMK A01 T01001020  RH  043%=      5-min Rain = 0
KMC4 211359Z 12010KT 10/M02 A2983 RMK A01 T01001020  RH  043%=      5-min Rain = 0
KMC4 211400Z 12011KT 10/M02 A2983 RMK A01 T01011020  RH  043%=      5-min Rain = 0
KMC4 211401Z 11009KT 10/M02 A2983 RMK A01 T01011021  RH  042%=      5-min Rain = 0
KMC4 211402Z 10007G13KT 10/M02 A2983 RMK A01 T01011020  RH  043%=      5-min Rain = 0
KMC4 211403Z 11009KT 10/M02 A2983 RMK A01 T01001020  RH  043%=      5-min Rain = 0
KMC4 211404Z 10008KT 10/M02 A2983 RMK A01 T01001019  RH  043%=      5-min Rain = 0
KMC4 211405Z 11011KT 10/M02 A2983 RMK A01 T01001019  RH  043%=      5-min Rain = 0
KMC4 211406Z 10008KT 10/M02 A2983 RMK A01 T01001019  RH  043%=      5-min Rain = 0
KMC4 211407Z 10009KT 10/M02 A2983 RMK A01 T01001019  RH  043%=      5-min Rain = 0
KMC4 211408Z 11009KT 10/M02 A2983 RMK A01 T01001019  RH  043%=      5-min Rain = 0
KMC4 211409Z 11011KT 10/M02 A2983 RMK A01 T01001019  RH  043%=      5-min Rain = 0
KMC4 211410Z 11010KT 10/M02 A2983 RMK A01 T01001019  RH  043%=      5-min Rain = 0
KMC4 211411Z 11010KT 10/M02 A2983 RMK A01 T01001020  RH  043%=      5-min Rain = 0
KMC4 211412Z 11010KT 10/M02 A2982 RMK A01 T01001019  RH  043%=      5-min Rain = 0
KMC4 211413Z 11012KT 10/M02 A2982 RMK A01 T01001020  RH  043%=      5-min Rain = 0
KMC4 211414Z 11012KT 10/M02 A2983 RMK A01 T01001020  RH  043%=      5-min Rain = 0
KMC4 211415Z 11011KT 10/M02 A2982 RMK A01 T01001020  RH  043%=      5-min Rain = 0
KMC4 211416Z 12011KT 10/M02 A2983 RMK A01 T01011019  RH  043%=      5-min Rain = 0
KMC4 211417Z 12011KT 10/M02 A2983 RMK A01 T01001019  RH  043%=      5-min Rain = 0
KMC4 211418Z 12014KT 10/M02 A2983 RMK A01 T01011019  RH  043%=      5-min Rain = 0
KMC4 211419Z 13014KT 10/M02 A2983 RMK A01 T01011019  RH  043%=      5-min Rain = 0
KMC4 211420Z 12012KT 10/M02 A2983 RMK A01 T01011019  RH  043%=      5-min Rain = 0
KMC4 211421Z 12011KT 10/M02 A2983 RMK A01 T01011019  RH  043%=      5-min Rain = 0
KMC4 211422Z 13011KT 10/M02 A2983 RMK A01 T01011019  RH  043%=      5-min Rain = 0
KMC4 211423Z 13013KT 10/M02 A2983 RMK A01 T01001019  RH  043%=      5-min Rain = 0
KMC4 211424Z 13013G18KT 10/M02 A2983 RMK A01 T01001019  RH  043%=      5-min Rain = 0
KMC4 211425Z 13013KT 10/M02 A2983 RMK A01 T01001019  RH  043%=      5-min Rain = 0
KMC4 211426Z 13015KT 10/M02 A2983 RMK A01 T01011019  RH  043%=      5-min Rain = 0
KMC4 211427Z 14015G20KT 10/M02 A2983 RMK A01 T01011020  RH  043%=      5-min Rain = 0
KMC4 211428Z 13014KT 10/M02 A2983 RMK A01 T01011019  RH  043%=      5-min Rain = 0
KMC4 211429Z 14013KT 10/M02 A2983 RMK A01 T01011019  RH  043%=      5-min Rain = 0
KMC4 211430Z 13013KT 10/M02 A2983 RMK A01 T01021019  RH  043%=      5-min Rain = 0
KMC4 211431Z 13010KT 10/M02 A2983 RMK A01 T01021018  RH  043%=      5-min Rain = 0
KMC4 211432Z 14009KT 10/M02 A2983 RMK A01 T01011018  RH  043%=      5-min Rain = 0
KMC4 211433Z 14011KT 10/M02 A2983 RMK A01 T01011017  RH  043%=      5-min Rain = 0
KMC4 211434Z 14012KT 10/M02 A2984 RMK A01 T01011019  RH  043%=      5-min Rain = 0
KMC4 211435Z 14012KT 10/M02 A2984 RMK A01 T01011018  RH  043%=      5-min Rain = 0
KMC4 211436Z 14012KT 10/M02 A2984 RMK A01 T01021018  RH  043%=      5-min Rain = 0
KMC4 211437Z 14011KT 10/M02 A2984 RMK A01 T01011018  RH  043%=      5-min Rain = 0
KMC4 211438Z 14010KT 10/M02 A2984 RMK A01 T01021018  RH  043%=      5-min Rain = 0
KMC4 211439Z 14010KT 10/M02 A2984 RMK A01 T01021017  RH  043%=      5-min Rain = 0
KMC4 211440Z 14010KT 10/M02 A2984 RMK A01 T01011017  RH  044%=      5-min Rain = 0
KMC4 211441Z 13011KT 10/M02 A2984 RMK A01 T01021017  RH  044%=      5-min Rain = 0
KMC4 211442Z 14012KT 10/M02 A2985 RMK A01 T01011017  RH  043%=      5-min Rain = 0
KMC4 211443Z 13012KT 10/M02 A2985 RMK A01 T01021017  RH  043%=      5-min Rain = 0
KMC4 211444Z 12010KT 10/M02 A2985 RMK A01 T01021017  RH  043%=      5-min Rain = 0
KMC4 211445Z 12009KT 10/M02 A2985 RMK A01 T01021018  RH  043%=      5-min Rain = 0
KMC4 211446Z 12008KT 10/M02 A2985 RMK A01 T01021017  RH  043%=      5-min Rain = 0
KMC4 211447Z 11007KT 10/M02 A2985 RMK A01 T01031017  RH  043%=      5-min Rain = 0
KMC4 211448Z 11008KT 10/M02 A2985 RMK A01 T01021017  RH  043%=      5-min Rain = 0
KMC4 211449Z 12009KT 10/M02 A2985 RMK A01 T01021018  RH  043%=      5-min Rain = 0
KMC4 211450Z 11007KT 10/M02 A2985 RMK A01 T01031017  RH  043%=      5-min Rain = 0
KMC4 211451Z 12007KT 10/M02 A2985 RMK A01 T01021017  RH  043%=      5-min Rain = 0
KMC4 211452Z 12008KT 10/M02 A2985 RMK A01 T01021016  RH  043%=      5-min Rain = 0
KMC4 211453Z 10008KT 10/M02 A2985 RMK A01 T01021016  RH  043%=      5-min Rain = 0
KMC4 211454Z 10004KT 10/M02 A2985 RMK A01 T01031016  RH  043%=      5-min Rain = 0
KMC4 211455Z 08007KT 10/M02 A2985 RMK A01 T01021016  RH  043%=      5-min Rain = 0
KMC4 211456Z 09007KT 10/M02 A2985 RMK A01 T01021016  RH  043%=      5-min Rain = 0
KMC4 211457Z 08004KT 10/M02 A2986 RMK A01 T01021017  RH  043%=      5-min Rain = 0
KMC4 211458Z 10005KT 10/M02 A2986 RMK A01 T01021016  RH  044%=      5-min Rain = 0
KMC4 211459Z 09007KT 10/M02 A2986 RMK A01 T01021016  RH  044%=      5-min Rain = 0
KMC4 211500Z 09007KT 10/M02 A2986 RMK A01 T01021016  RH  044%=      5-min Rain = 0
KMC4 211501Z 08007KT 10/M02 A2986 RMK A01 T01021016  RH  044%=      5-min Rain = 0
KMC4 211502Z 10007KT 10/M02 A2986 RMK A01 T01021015  RH  044%=      5-min Rain = 0
KMC4 211503Z 09009KT 10/M02 A2986 RMK A01 T01021015  RH  044%=      5-min Rain = 0
KMC4 211504Z 11010KT 10/M02 A2986 RMK A01 T01021016  RH  044%=      5-min Rain = 0
KMC4 211505Z 10008KT 10/M02 A2986 RMK A01 T01021016  RH  044%=      5-min Rain = 0
KMC4 211506Z 11012KT 10/M02 A2986 RMK A01 T01021016  RH  044%=      5-min Rain = 0
KMC4 211507Z 11010KT 10/M02 A2986 RMK A01 T01021016  RH  044%=      5-min Rain = 0
KMC4 211508Z 12009KT 10/M02 A2986 RMK A01 T01031016  RH  044%=      5-min Rain = 0
KMC4 211509Z 12011KT 10/M01 A2986 RMK A01 T01031014  RH  044%=      5-min Rain = 0
KMC4 211510Z 12011KT 10/M02 A2986 RMK A01 T01031015  RH  044%=      5-min Rain = 0
KMC4 211511Z 11012KT 10/M01 A2986 RMK A01 T01031014  RH  044%=      5-min Rain = 0
KMC4 211512Z 11013KT 10/M02 A2986 RMK A01 T01031015  RH  044%=      5-min Rain = 0
KMC4 211513Z 12013KT 10/M02 A2985 RMK A01 T01031015  RH  044%=      5-min Rain = 0
KMC4 211514Z 12011KT 10/M01 A2985 RMK A01 T01031014  RH  044%=      5-min Rain = 0
KMC4 211515Z 12012KT 10/M01 A2986 RMK A01 T01031014  RH  044%=      5-min Rain = 0
KMC4 211516Z 11011KT 10/M01 A2986 RMK A01 T01031014  RH  044%=      5-min Rain = 0
KMC4 211517Z 12013KT 10/M01 A2986 RMK A01 T01041013  RH  044%=      5-min Rain = 0
KMC4 211518Z 12011KT 10/M01 A2986 RMK A01 T01031013  RH  044%=      5-min Rain = 0
KMC4 211519Z 11011KT 10/M01 A2986 RMK A01 T01041013  RH  044%=      5-min Rain = 0
KMC4 211520Z 11009KT 10/M01 A2986 RMK A01 T01041013  RH  044%=      5-min Rain = 0
KMC4 211521Z 12011KT 10/M01 A2986 RMK A01 T01041013  RH  044%=      5-min Rain = 0
KMC4 211522Z 12013KT 10/M01 A2986 RMK A01 T01041013  RH  044%=      5-min Rain = 0
KMC4 211523Z 11010KT 10/M01 A2986 RMK A01 T01041013  RH  044%=      5-min Rain = 0
KMC4 211524Z 11012KT 10/M01 A2986 RMK A01 T01041013  RH  044%=      5-min Rain = 0
KMC4 211525Z 12012KT 10/M01 A2986 RMK A01 T01041013  RH  044%=      5-min Rain = 0
KMC4 211526Z 11010KT 10/M01 A2986 RMK A01 T01041013  RH  044%=      5-min Rain = 0
KMC4 211527Z 11012KT 10/M01 A2986 RMK A01 T01041012  RH  044%=      5-min Rain = 0
KMC4 211528Z 10010KT 11/M01 A2986 RMK A01 T01051012  RH  044%=      5-min Rain = 0
KMC4 211529Z 11011KT 11/M01 A2986 RMK A01 T01051012  RH  044%=      5-min Rain = 0
KMC4 211530Z 10010KT 11/M01 A2986 RMK A01 T01051013  RH  044%=      5-min Rain = 0
KMC4 211531Z 11010KT 11/M01 A2986 RMK A01 T01051012  RH  044%=      5-min Rain = 0
KMC4 211532Z 11008KT 11/M01 A2986 RMK A01 T01051012  RH  044%=      5-min Rain = 0
KMC4 211533Z 11009KT 11/M01 A2987 RMK A01 T01051012  RH  044%=      5-min Rain = 0
KMC4 211534Z 12010KT 11/M01 A2987 RMK A01 T01061011  RH  044%=      5-min Rain = 0
KMC4 211535Z 12011KT 11/M01 A2987 RMK A01 T01061013  RH  044%=      5-min Rain = 0
KMC4 211536Z 12010KT 11/M01 A2987 RMK A01 T01061013  RH  044%=      5-min Rain = 0
KMC4 211537Z 12009KT 11/M01 A2987 RMK A01 T01071012  RH  043%=      5-min Rain = 0
KMC4 211538Z 11009KT 11/M01 A2987 RMK A01 T01071012  RH  044%=      5-min Rain = 0
KMC4 211539Z 11010KT 11/M01 A2987 RMK A01 T01071011  RH  044%=      5-min Rain = 0
KMC4 211540Z 11008KT 11/M01 A2987 RMK A01 T01081012  RH  043%=      5-min Rain = 0
KMC4 211541Z 11007KT 11/M01 A2987 RMK A01 T01081012  RH  043%=      5-min Rain = 0
KMC4 211542Z 12006KT 11/M01 A2987 RMK A01 T01081011  RH  043%=      5-min Rain = 0
KMC4 211543Z 12009KT 11/M01 A2987 RMK A01 T01091010  RH  043%=      5-min Rain = 0
KMC4 211544Z 11008KT 11/M01 A2987 RMK A01 T01101011  RH  043%=      5-min Rain = 0
KMC4 211545Z 10006KT 11/M01 A2987 RMK A01 T01101011  RH  043%=      5-min Rain = 0
KMC4 211546Z 11006KT 11/M01 A2988 RMK A01 T01101010  RH  043%=      5-min Rain = 0
KMC4 211547Z 12007KT 11/M01 A2988 RMK A01 T01111010  RH  043%=      5-min Rain = 0
KMC4 211548Z 12007KT 11/M01 A2988 RMK A01 T01111011  RH  043%=      5-min Rain = 0
KMC4 211549Z 10006KT 11/M01 A2988 RMK A01 T01111010  RH  043%=      5-min Rain = 0
KMC4 211550Z 10006KT 11/M01 A2988 RMK A01 T01111010  RH  043%=      5-min Rain = 0
KMC4 211551Z 10004KT 11/M01 A2988 RMK A01 T01111011  RH  043%=      5-min Rain = 0
KMC4 211552Z 09005KT 11/M01 A2988 RMK A01 T01121009  RH  043%=      5-min Rain = 0
KMC4 211553Z 10005KT 11/M01 A2988 RMK A01 T01121009  RH  043%=      5-min Rain = 0
KMC4 211554Z 09004KT 11/M01 A2988 RMK A01 T01131010  RH  043%=      5-min Rain = 0
KMC4 211555Z 10005KT 11/M01 A2988 RMK A01 T01121011  RH  042%=      5-min Rain = 0
KMC4 211556Z 10004KT 11/M01 A2988 RMK A01 T01131010  RH  042%=      5-min Rain = 0
KMC4 211557Z 11005KT 11/M01 A2988 RMK A01 T01141010  RH  042%=      5-min Rain = 0
KMC4 211558Z 12005KT 12/M01 A2988 RMK A01 T01151011  RH  042%=      5-min Rain = 0
KMC4 211559Z 12006KT 12/M01 A2988 RMK A01 T01151012  RH  041%=      5-min Rain = 0
KMC4 211600Z 12005KT 12/M01 A2988 RMK A01 T01161010  RH  042%=      5-min Rain = 0
KMC4 211601Z 13006KT 12/M01 A2988 RMK A01 T01171010  RH  041%=      5-min Rain = 0
KMC4 211602Z 11008KT 12/M01 A2988 RMK A01 T01171011  RH  041%=      5-min Rain = 0
KMC4 211603Z 11008KT 12/M01 A2988 RMK A01 T01181011  RH  041%=      5-min Rain = 0
KMC4 211604Z 11006KT 12/M01 A2988 RMK A01 T01181011  RH  041%=      5-min Rain = 0
KMC4 211605Z 12008KT 12/M01 A2988 RMK A01 T01181010  RH  041%=      5-min Rain = 0
KMC4 211606Z 14008KT 12/M01 A2988 RMK A01 T01181011  RH  041%=      5-min Rain = 0
KMC4 211607Z 11006KT 12/M01 A2988 RMK A01 T01181011  RH  041%=      5-min Rain = 0
KMC4 211608Z 11008KT 12/M01 A2988 RMK A01 T01181011  RH  041%=      5-min Rain = 0
KMC4 211609Z 12009KT 12/M01 A2988 RMK A01 T01181011  RH  041%=      5-min Rain = 0
KMC4 211610Z 12007KT 12/M01 A2988 RMK A01 T01171012  RH  041%=      5-min Rain = 0
KMC4 211611Z 14007KT 12/M01 A2988 RMK A01 T01171009  RH  042%=      5-min Rain = 0
KMC4 211612Z 12008KT 12/M01 A2988 RMK A01 T01171009  RH  042%=      5-min Rain = 0
KMC4 211613Z 12010KT 12/M01 A2988 RMK A01 T01171010  RH  041%=      5-min Rain = 0
KMC4 211614Z 12011KT 12/M01 A2988 RMK A01 T01171010  RH  041%=      5-min Rain = 0
KMC4 211615Z 13010KT 12/M01 A2988 RMK A01 T01171011  RH  041%=      5-min Rain = 0
KMC4 211616Z 13009KT 12/M01 A2988 RMK A01 T01161010  RH  041%=      5-min Rain = 0
KMC4 211617Z 13008KT 12/M01 A2988 RMK A01 T01161010  RH  041%=      5-min Rain = 0
KMC4 211618Z 12009KT 12/M01 A2988 RMK A01 T01171009  RH  042%=      5-min Rain = 0
KMC4 211619Z 13009KT 12/M01 A2988 RMK A01 T01171011  RH  041%=      5-min Rain = 0
KMC4 211620Z 12009KT 12/M01 A2988 RMK A01 T01171010  RH  041%=      5-min Rain = 0
KMC4 211621Z 12009KT 12/M01 A2988 RMK A01 T01171010  RH  041%=      5-min Rain = 0
KMC4 211622Z 12010KT 12/M01 A2988 RMK A01 T01171011  RH  041%=      5-min Rain = 0
KMC4 211623Z 12009KT 12/M01 A2988 RMK A01 T01171010  RH  041%=      5-min Rain = 0
KMC4 211624Z 12009KT 12/M01 A2988 RMK A01 T01171011  RH  041%=      5-min Rain = 0
KMC4 211625Z 13011KT 12/M01 A2988 RMK A01 T01171011  RH  041%=      5-min Rain = 0
KMC4 211626Z 14011KT 12/M01 A2988 RMK A01 T01171011  RH  041%=      5-min Rain = 0
KMC4 211627Z 14009KT 12/M01 A2988 RMK A01 T01181010  RH  041%=      5-min Rain = 0
KMC4 211628Z 13006KT 12/M01 A2988 RMK A01 T01181010  RH  041%=      5-min Rain = 0
KMC4 211629Z 13006KT 12/M01 A2988 RMK A01 T01201006  RH  042%=      5-min Rain = 0
KMC4 211630Z 13007KT 12/M01 A2988 RMK A01 T01211006  RH  041%=      5-min Rain = 0
KMC4 211631Z 14009KT 12/M01 A2988 RMK A01 T01211009  RH  041%=      5-min Rain = 0
KMC4 211632Z 14009KT 12/M01 A2988 RMK A01 T01211010  RH  040%=      5-min Rain = 0
KMC4 211633Z 14010KT 12/M01 A2988 RMK A01 T01211009  RH  041%=      5-min Rain = 0
KMC4 211634Z 14009KT 12/M01 A2988 RMK A01 T01211010  RH  040%=      5-min Rain = 0
KMC4 211635Z 15008KT 12/M01 A2988 RMK A01 T01201011  RH  040%=      5-min Rain = 0
KMC4 211636Z 14009KT 12/M01 A2988 RMK A01 T01201009  RH  041%=      5-min Rain = 0
KMC4 211637Z 14011KT 12/M01 A2988 RMK A01 T01201008  RH  041%=      5-min Rain = 0
KMC4 211638Z 15010KT 12/M01 A2988 RMK A01 T01211009  RH  041%=      5-min Rain = 0
KMC4 211639Z 15012KT 12/M01 A2987 RMK A01 T01221009  RH  040%=      5-min Rain = 0
KMC4 211640Z 15011KT 12/M01 A2987 RMK A01 T01231009  RH  040%=      5-min Rain = 0
KMC4 211641Z 14011KT 12/M01 A2987 RMK A01 T01241009  RH  040%=      5-min Rain = 0
KMC4 211642Z 14013KT 12/M01 A2987 RMK A01 T01241008  RH  040%=      5-min Rain = 0
KMC4 211643Z 14014KT 12/M01 A2987 RMK A01 T01241010  RH  040%=      5-min Rain = 0
KMC4 211644Z 14013KT 12/M01 A2987 RMK A01 T01241010  RH  040%=      5-min Rain = 0
KMC4 211645Z 15013KT 12/M01 A2987 RMK A01 T01241009  RH  040%=      5-min Rain = 0
KMC4 211646Z 15015KT 12/M01 A2987 RMK A01 T01241010  RH  039%=      5-min Rain = 0
KMC4 211647Z 16014KT 12/M01 A2987 RMK A01 T01241011  RH  039%=      5-min Rain = 0
KMC4 211648Z 16013KT 12/M01 A2987 RMK A01 T01231011  RH  039%=      5-min Rain = 0
KMC4 211649Z 16012KT 12/M01 A2987 RMK A01 T01231010  RH  040%=      5-min Rain = 0
KMC4 211650Z 15012KT 12/M01 A2987 RMK A01 T01241007  RH  040%=      5-min Rain = 0
KMC4 211651Z 14014KT 13/M01 A2987 RMK A01 T01261006  RH  040%=      5-min Rain = 0
KMC4 211652Z 15012KT 13/M01 A2987 RMK A01 T01271007  RH  040%=      5-min Rain = 0
KMC4 211653Z 14010KT 13/M01 A2987 RMK A01 T01271006  RH  040%=      5-min Rain = 0
KMC4 211654Z 15010KT 13/M01 A2987 RMK A01 T01271006  RH  040%=      5-min Rain = 0
KMC4 211655Z 16012KT 13/M01 A2987 RMK A01 T01281005  RH  040%=      5-min Rain = 0
KMC4 211656Z 16013KT 13/M01 A2987 RMK A01 T01281008  RH  039%=      5-min Rain = 0
KMC4 211657Z 15012KT 13/M01 A2987 RMK A01 T01271008  RH  039%=      5-min Rain = 0
KMC4 211658Z 14011KT 13/M01 A2987 RMK A01 T01261008  RH  039%=      5-min Rain = 0
KMC4 211659Z 14013KT 13/M01 A2987 RMK A01 T01261008  RH  039%=      5-min Rain = 0
KMC4 211700Z 14013KT 13/M01 A2987 RMK A01 T01271009  RH  039%=      5-min Rain = 0
KMC4 211701Z 13013KT 13/M01 A2986 RMK A01 T01281008  RH  039%=      5-min Rain = 0
KMC4 211702Z 13014KT 13/M01 A2986 RMK A01 T01291008  RH  039%=      5-min Rain = 0
KMC4 211703Z 13013KT 13/M01 A2987 RMK A01 T01291009  RH  038%=      5-min Rain = 0
KMC4 211704Z 14012KT 13/M01 A2987 RMK A01 T01301008  RH  039%=      5-min Rain = 0
KMC4 211705Z 13012KT 13/M01 A2987 RMK A01 T01301008  RH  039%=      5-min Rain = 0
KMC4 211706Z 14009KT 13/M01 A2987 RMK A01 T01311007  RH  038%=      5-min Rain = 0
KMC4 211707Z 13012KT 13/M01 A2987 RMK A01 T01311007  RH  039%=      5-min Rain = 0
KMC4 211708Z 14011KT 13/M01 A2987 RMK A01 T01321006  RH  039%=      5-min Rain = 0
KMC4 211709Z 13012KT 13/M01 A2987 RMK A01 T01331005  RH  039%=      5-min Rain = 0
KMC4 211710Z 14010KT 13/M01 A2987 RMK A01 T01331006  RH  038%=      5-min Rain = 0
KMC4 211711Z 13012KT 13/M01 A2987 RMK A01 T01331007  RH  038%=      5-min Rain = 0
KMC4 211712Z 13012KT 13/M01 A2986 RMK A01 T01321007  RH  038%=      5-min Rain = 0
KMC4 211713Z 13013KT 13/M01 A2986 RMK A01 T01321007  RH  038%=      5-min Rain = 0
KMC4 211714Z 13010KT 13/M01 A2986 RMK A01 T01311007  RH  038%=      5-min Rain = 0
KMC4 211715Z 13014KT 13/M01 A2986 RMK A01 T01321005  RH  039%=      5-min Rain = 0
KMC4 211716Z 13015KT 13/M01 A2986 RMK A01 T01321008  RH  038%=      5-min Rain = 0
KMC4 211717Z 14014KT 13/M01 A2986 RMK A01 T01311009  RH  038%=      5-min Rain = 0
KMC4 211718Z 14015KT 13/M01 A2986 RMK A01 T01311008  RH  038%=      5-min Rain = 0
KMC4 211719Z 15013KT 13/M01 A2986 RMK A01 T01301009  RH  038%=      5-min Rain = 0
KMC4 211720Z 14012KT 13/M01 A2986 RMK A01 T01301008  RH  039%=      5-min Rain = 0
KMC4 211721Z 14014KT 13/M01 A2986 RMK A01 T01301007  RH  039%=      5-min Rain = 0
KMC4 211722Z 14013KT 13/M01 A2986 RMK A01 T01301008  RH  038%=      5-min Rain = 0
KMC4 211723Z 15012KT 13/M01 A2986 RMK A01 T01301007  RH  039%=      5-min Rain = 0
KMC4 211724Z 14015KT 13/M01 A2986 RMK A01 T01301007  RH  039%=      5-min Rain = 0
KMC4 211725Z 14013KT 13/M01 A2986 RMK A01 T01301008  RH  038%=      5-min Rain = 0
KMC4 211726Z 15011KT 13/M01 A2986 RMK A01 T01301007  RH  039%=      5-min Rain = 0
KMC4 211727Z 15014KT 13/M01 A2986 RMK A01 T01311005  RH  039%=      5-min Rain = 0
KMC4 211728Z 16016KT 13/M01 A2985 RMK A01 T01321008  RH  038%=      5-min Rain = 0
KMC4 211729Z 15013KT 13/M01 A2986 RMK A01 T01321008  RH  038%=      5-min Rain = 0
KMC4 211730Z 16014KT 13/M01 A2985 RMK A01 T01321007  RH  038%=      5-min Rain = 0
KMC4 211731Z 15014KT 13/M01 A2985 RMK A01 T01311008  RH  038%=      5-min Rain = 0
KMC4 211732Z 15014KT 13/M01 A2985 RMK A01 T01321006  RH  039%=      5-min Rain = 0
KMC4 211733Z 13014KT 13/M01 A2985 RMK A01 T01321007  RH  038%=      5-min Rain = 0
KMC4 211734Z 14013KT 13/M01 A2985 RMK A01 T01321006  RH  038%=      5-min Rain = 0
KMC4 211735Z 15015KT 13/M01 A2985 RMK A01 T01331005  RH  039%=      5-min Rain = 0
KMC4 211736Z 15014KT 13/M01 A2986 RMK A01 T01341006  RH  038%=      5-min Rain = 0
KMC4 211737Z 14013KT 13/M01 A2986 RMK A01 T01341006  RH  038%=      5-min Rain = 0
KMC4 211738Z 14012KT 13/M01 A2986 RMK A01 T01341005  RH  038%=      5-min Rain = 0
KMC4 211739Z 15011KT 14/M00 A2986 RMK A01 T01351003  RH  039%=      5-min Rain = 0
KMC4 211740Z 15012G17KT 14/M00 A2986 RMK A01 T01381001  RH  039%=      5-min Rain = 0
KMC4 211741Z 15014KT 14/M00 A2986 RMK A01 T01381004  RH  038%=      5-min Rain = 0
KMC4 211742Z 14014KT 14/M01 A2986 RMK A01 T01361006  RH  038%=      5-min Rain = 0
KMC4 211743Z 14015KT 14/M01 A2986 RMK A01 T01361005  RH  038%=      5-min Rain = 0
KMC4 211744Z 15012KT 14/M01 A2986 RMK A01 T01351006  RH  038%=      5-min Rain = 0
KMC4 211745Z 14015KT 14/M01 A2986 RMK A01 T01351005  RH  038%=      5-min Rain = 0
KMC4 211746Z 15015KT 14/M01 A2986 RMK A01 T01351006  RH  038%=      5-min Rain = 0
KMC4 211747Z 15015KT 14/M01 A2986 RMK A01 T01351007  RH  038%=      5-min Rain = 0
KMC4 211748Z 14013KT 14/M01 A2986 RMK A01 T01351005  RH  038%=      5-min Rain = 0
KMC4 211749Z 13013KT 14/M01 A2986 RMK A01 T01361005  RH  038%=      5-min Rain = 0
KMC4 211750Z 13013KT 14/M00 A2986 RMK A01 T01361004  RH  038%=      5-min Rain = 0
KMC4 211751Z 15011KT 14/M00 A2986 RMK A01 T01371003  RH  038%=      5-min Rain = 0
KMC4 211752Z 15013KT 14/M00 A2985 RMK A01 T01381002  RH  038%=      5-min Rain = 0
KMC4 211753Z 15014KT 14/M01 A2985 RMK A01 T01381005  RH  037%=      5-min Rain = 0
KMC4 211754Z 14014KT 14/M01 A2985 RMK A01 T01371005  RH  038%=      5-min Rain = 0
KMC4 211755Z 14013KT 14/M01 A2985 RMK A01 T01361005  RH  038%=      5-min Rain = 0
KMC4 211756Z 14014KT 14/M00 A2985 RMK A01 T01351004  RH  038%=      5-min Rain = 0
KMC4 211757Z 14014KT 14/M01 A2985 RMK A01 T01351005  RH  038%=      5-min Rain = 0
KMC4 211758Z 15012KT 14/M01 A2985 RMK A01 T01351005  RH  038%=      5-min Rain = 0
KMC4 211759Z 14013KT 14/M00 A2985 RMK A01 T01351004  RH  038%=      5-min Rain = 0
KMC4 211800Z 14013KT 14/M00 A2985 RMK A01 T01361004  RH  038%=      5-min Rain = 0
KMC4 211801Z 13013KT 14/M00 A2985 RMK A01 T01361004  RH  038%=      5-min Rain = 0
KMC4 211802Z 13014KT 14/M00 A2985 RMK A01 T01361004  RH  038%=      5-min Rain = 0
KMC4 211803Z 14013KT 14/M00 A2985 RMK A01 T01361004  RH  038%=      5-min Rain = 0
KMC4 211804Z 14013KT 14/M00 A2985 RMK A01 T01361003  RH  038%=      5-min Rain = 0
KMC4 211805Z 14014KT 14/M00 A2985 RMK A01 T01371004  RH  038%=      5-min Rain = 0
KMC4 211806Z 15013KT 14/M00 A2985 RMK A01 T01371003  RH  038%=      5-min Rain = 0
KMC4 211807Z 15013KT 14/M00 A2985 RMK A01 T01381004  RH  038%=      5-min Rain = 0
KMC4 211808Z 15013KT 14/M00 A2984 RMK A01 T01391003  RH  038%=      5-min Rain = 0
KMC4 211809Z 14014G19KT 14/M00 A2985 RMK A01 T01411001  RH  038%=      5-min Rain = 0
KMC4 211810Z 15016KT 14/M00 A2984 RMK A01 T01411003  RH  037%=      5-min Rain = 0
KMC4 211811Z 15015KT 14/M01 A2984 RMK A01 T01391005  RH  037%=      5-min Rain = 0
KMC4 211812Z 15014KT 14/M00 A2984 RMK A01 T01381004  RH  038%=      5-min Rain = 0
KMC4 211813Z 15012KT 14/M00 A2984 RMK A01 T01401002  RH  038%=      5-min Rain = 0
KMC4 211814Z 14012KT 14/00 A2984 RMK A01 T01410000  RH  038%=      5-min Rain = 0
KMC4 211815Z 14013KT 14/00 A2984 RMK A01 T01430001  RH  038%=      5-min Rain = 0
KMC4 211816Z 13013KT 14/00 A2984 RMK A01 T01430000  RH  038%=      5-min Rain = 0
KMC4 211817Z 14014KT 14/M00 A2983 RMK A01 T01411001  RH  038%=      5-min Rain = 0
KMC4 211818Z 14013KT 14/M00 A2983 RMK A01 T01401001  RH  038%=      5-min Rain = 0
KMC4 211819Z 12015KT 14/00 A2983 RMK A01 T01400001  RH  038%=      5-min Rain = 0
KMC4 211820Z 13015G20KT 14/00 A2983 RMK A01 T014100-0  RH  038%=      5-min Rain = 0
KMC4 211821Z 14018KT 14/00 A2983 RMK A01 T014100-0  RH  038%=      5-min Rain = 0
KMC4 211822Z 13014KT 14/M00 A2983 RMK A01 T01411002  RH  038%=      5-min Rain = 0
KMC4 211823Z 14016KT 14/00 A2983 RMK A01 T01410000  RH  038%=      5-min Rain = 0
KMC4 211824Z 15014KT 14/00 A2983 RMK A01 T014100-0  RH  038%=      5-min Rain = 0
KMC4 211825Z 14016KT 14/M00 A2983 RMK A01 T01411001  RH  038%=      5-min Rain = 0
KMC4 211826Z 14017KT 14/M00 A2982 RMK A01 T01411002  RH  038%=      5-min Rain = 0
KMC4 211827Z 14016KT 14/M00 A2982 RMK A01 T01431001  RH  037%=      5-min Rain = 0
KMC4 211828Z 14015KT 14/00 A2982 RMK A01 T01440001  RH  037%=      5-min Rain = 0
KMC4 211829Z 14014KT 15/00 A2982 RMK A01 T01450001  RH  037%=      5-min Rain = 0
KMC4 211830Z 14016KT 15/00 A2982 RMK A01 T01470001  RH  037%=      5-min Rain = 0
KMC4 211831Z 14013KT 15/00 A2982 RMK A01 T014700-0  RH  037%=      5-min Rain = 0
KMC4 211832Z 14013KT 15/00 A2982 RMK A01 T01470002  RH  037%=      5-min Rain = 0
KMC4 211833Z 13016KT 15/00 A2982 RMK A01 T01480000  RH  037%=      5-min Rain = 0
KMC4 211834Z 14014KT 15/M00 A2982 RMK A01 T01461001  RH  037%=      5-min Rain = 0
KMC4 211835Z 14015G20KT 15/00 A2982 RMK A01 T01450001  RH  037%=      5-min Rain = 0
KMC4 211836Z 14015KT 15/M00 A2982 RMK A01 T01461001  RH  037%=      5-min Rain = 0
KMC4 211837Z 14015KT 15/M00 A2982 RMK A01 T01451001  RH  037%=      5-min Rain = 0
KMC4 211838Z 14016KT 14/M00 A2982 RMK A01 T01441001  RH  037%=      5-min Rain = 0
KMC4 211839Z 14017KT 14/M00 A2982 RMK A01 T01441001  RH  037%=      5-min Rain = 0
KMC4 211840Z 14017KT 14/M00 A2981 RMK A01 T01441001  RH  037%=      5-min Rain = 0
KMC4 211841Z 14016KT 14/M00 A2981 RMK A01 T01441002  RH  037%=      5-min Rain = 0
KMC4 211842Z 15016KT 14/M00 A2982 RMK A01 T01441002  RH  037%=      5-min Rain = 0
KMC4 211843Z 14016KT 14/M00 A2981 RMK A01 T01441001  RH  037%=      5-min Rain = 0
KMC4 211844Z 13015KT 14/M00 A2981 RMK A01 T01441001  RH  037%=      5-min Rain = 0
KMC4 211845Z 13016KT 14/00 A2981 RMK A01 T014300-0  RH  037%=      5-min Rain = 0
KMC4 211846Z 14015KT 14/00 A2981 RMK A01 T014400-0  RH  037%=      5-min Rain = 0
KMC4 211847Z 13015KT 14/00 A2981 RMK A01 T01440000  RH  037%=      5-min Rain = 0
KMC4 211848Z 13014KT 14/00 A2982 RMK A01 T014400-0  RH  037%=      5-min Rain = 0
KMC4 211849Z 13013KT 14/00 A2982 RMK A01 T01430001  RH  038%=      5-min Rain = 0
KMC4 211850Z 13012G17KT 15/00 A2982 RMK A01 T01450003  RH  038%=      5-min Rain = 0
KMC4 211851Z 14015KT 15/00 A2981 RMK A01 T01470003  RH  037%=      5-min Rain = 0
KMC4 211852Z 13013KT 15/00 A2981 RMK A01 T01470002  RH  037%=      5-min Rain = 0
KMC4 211853Z 14014KT 15/00 A2981 RMK A01 T01470002  RH  037%=      5-min Rain = 0
KMC4 211854Z 13015G21KT 15/00 A2981 RMK A01 T01460002  RH  037%=      5-min Rain = 0
KMC4 211855Z 13017KT 15/00 A2981 RMK A01 T01460001  RH  037%=      5-min Rain = 0
KMC4 211856Z 13017KT 14/M00 A2981 RMK A01 T01441001  RH  037%=      5-min Rain = 0
KMC4 211857Z 13017KT 14/00 A2981 RMK A01 T01430000  RH  038%=      5-min Rain = 0
KMC4 211858Z 14018KT 14/00 A2981 RMK A01 T01430000  RH  038%=      5-min Rain = 0
KMC4 211859Z 13016G21KT 14/00 A2981 RMK A01 T01440001  RH  037%=      5-min Rain = 0
KMC4 211900Z 13017KT 15/00 A2981 RMK A01 T01470003  RH  037%=      5-min Rain = 0
KMC4 211901Z 13016KT 15/00 A2981 RMK A01 T01470002  RH  037%=      5-min Rain = 0
KMC4 211902Z 14013KT 15/00 A2981 RMK A01 T01480003  RH  037%=      5-min Rain = 0
KMC4 211903Z 14016KT 15/01 A2981 RMK A01 T01500005  RH  037%=      5-min Rain = 0
KMC4 211904Z 14018KT 15/00 A298 RMK A01 T01510003  RH  036%=      5-min Rain = 0
KMC4 211905Z 13020KT 15/00 A298 RMK A01 T01500002  RH  036%=      5-min Rain = 0
KMC4 211906Z 14017KT 15/00 A298 RMK A01 T01490002  RH  037%=      5-min Rain = 0
KMC4 211907Z 13015KT 15/00 A298 RMK A01 T01490002  RH  037%=      5-min Rain = 0
KMC4 211908Z 14014KT 15/01 A298 RMK A01 T01500005  RH  037%=      5-min Rain = 0
KMC4 211909Z 13015KT 15/00 A298 RMK A01 T01520004  RH  037%=      5-min Rain = 0
KMC4 211910Z 14012KT 15/00 A298 RMK A01 T01520004  RH  036%=      5-min Rain = 0
KMC4 211911Z 14015KT 15/00 A298 RMK A01 T01520004  RH  037%=      5-min Rain = 0
KMC4 211912Z 13011KT 15/00 A298 RMK A01 T01520003  RH  036%=      5-min Rain = 0
KMC4 211913Z 13012G17KT 15/01 A2981 RMK A01 T01540008  RH  037%=      5-min Rain = 0
KMC4 211914Z 13014KT 16/01 A298 RMK A01 T01550007  RH  037%=      5-min Rain = 0
KMC4 211915Z 12014KT 16/01 A2981 RMK A01 T01550006  RH  036%=      5-min Rain = 0
KMC4 211916Z 12015KT 15/01 A2981 RMK A01 T01530005  RH  037%=      5-min Rain = 0
KMC4 211917Z 12015KT 15/01 A2981 RMK A01 T01520005  RH  037%=      5-min Rain = 0
KMC4 211918Z 12013KT 15/01 A298 RMK A01 T01520005  RH  037%=      5-min Rain = 0
KMC4 211919Z 12016KT 15/01 A298 RMK A01 T01520005  RH  037%=      5-min Rain = 0
KMC4 211920Z 12014KT 15/01 A298 RMK A01 T01510005  RH  037%=      5-min Rain = 0
KMC4 211921Z 13013KT 15/01 A298 RMK A01 T01510005  RH  037%=      5-min Rain = 0
KMC4 211922Z 12013KT 15/01 A298 RMK A01 T01510007  RH  037%=      5-min Rain = 0
KMC4 211923Z 13013KT 15/01 A298 RMK A01 T01520007  RH  037%=      5-min Rain = 0
KMC4 211924Z 12014KT 15/01 A298 RMK A01 T01530006  RH  037%=      5-min Rain = 0
KMC4 211925Z 13015KT 15/00 A298 RMK A01 T01520004  RH  037%=      5-min Rain = 0
KMC4 211926Z 13014KT 15/01 A298 RMK A01 T01510005  RH  037%=      5-min Rain = 0
KMC4 211927Z 13012G17KT 15/01 A298 RMK A01 T01520006  RH  037%=      5-min Rain = 0
KMC4 211928Z 13015KT 15/01 A298 RMK A01 T01520007  RH  037%=      5-min Rain = 0
KMC4 211929Z 12016KT 15/01 A298 RMK A01 T01530006  RH  037%=      5-min Rain = 0
KMC4 211930Z 11014KT 15/00 A298 RMK A01 T01500003  RH  037%=      5-min Rain = 0
KMC4 211931Z 11013KT 15/00 A298 RMK A01 T01480003  RH  037%=      5-min Rain = 0
KMC4 211932Z 13014KT 15/01 A298 RMK A01 T01480006  RH  038%=      5-min Rain = 0
KMC4 211933Z 13014KT 15/01 A298 RMK A01 T01500007  RH  038%=      5-min Rain = 0
KMC4 211934Z 12016KT 15/01 A298 RMK A01 T01500005  RH  037%=      5-min Rain = 0
KMC4 211935Z 13016KT 15/01 A298 RMK A01 T01500005  RH  037%=      5-min Rain = 0
KMC4 211936Z 13013KT 15/01 A298 RMK A01 T01500005  RH  037%=      5-min Rain = 0
KMC4 211937Z 13013KT 15/01 A298 RMK A01 T01490006  RH  038%=      5-min Rain = 0
KMC4 211938Z 11012KT 15/01 A298 RMK A01 T01500007  RH  038%=      5-min Rain = 0
KMC4 211939Z 12012KT 15/01 A2979 RMK A01 T01510007  RH  037%=      5-min Rain = 0
KMC4 211940Z 11012KT 15/01 A2979 RMK A01 T01510006  RH  037%=      5-min Rain = 0
KMC4 211941Z 12010KT 15/01 A298 RMK A01 T01510007  RH  037%=      5-min Rain = 0
KMC4 211942Z 12009KT 15/01 A298 RMK A01 T01520009  RH  038%=      5-min Rain = 0
KMC4 211943Z 12012KT 15/01 A2979 RMK A01 T01530008  RH  037%=      5-min Rain = 0
KMC4 211944Z 12013KT 15/01 A2979 RMK A01 T01530008  RH  037%=      5-min Rain = 0
KMC4 211945Z 12013KT 15/01 A2979 RMK A01 T01530008  RH  037%=      5-min Rain = 0
KMC4 211946Z 12013KT 15/01 A2979 RMK A01 T01530007  RH  037%=      5-min Rain = 0
KMC4 211947Z 13014KT 15/01 A2979 RMK A01 T01520006  RH  037%=      5-min Rain = 0
KMC4 211948Z 12012KT 15/01 A2979 RMK A01 T01520007  RH  037%=      5-min Rain = 0
KMC4 211949Z 12014KT 15/01 A2979 RMK A01 T01520007  RH  037%=      5-min Rain = 0
KMC4 211950Z 13012KT 15/01 A2979 RMK A01 T01510006  RH  037%=      5-min Rain = 0
KMC4 211951Z 13009KT 15/01 A2979 RMK A01 T01510008  RH  038%=      5-min Rain = 0
KMC4 211952Z 12012KT 15/01 A2979 RMK A01 T01530010  RH  038%=      5-min Rain = 0
KMC4 211953Z 12009KT 15/01 A2979 RMK A01 T01540009  RH  037%=      5-min Rain = 0
KMC4 211954Z 12011KT 16/01 A2978 RMK A01 T01550010  RH  037%=      5-min Rain = 0
KMC4 211955Z 13012KT 16/01 A2978 RMK A01 T01550010  RH  037%=      5-min Rain = 0
KMC4 211956Z 12015KT 16/01 A2978 RMK A01 T01550009  RH  037%=      5-min Rain = 0
KMC4 211957Z 13013KT 15/01 A2978 RMK A01 T01530008  RH  037%=      5-min Rain = 0
KMC4 211958Z 12011KT 15/01 A2978 RMK A01 T01530009  RH  038%=      5-min Rain = 0
KMC4 211959Z 12014KT 16/01 A2978 RMK A01 T01550010  RH  037%=      5-min Rain = 0
KMC4 212000Z 11012KT 16/01 A2978 RMK A01 T01570009  RH  037%=      5-min Rain = 0
KMC4 212001Z 15013KT 16/01 A2978 RMK A01 T01580010  RH  037%=      5-min Rain = 0
KMC4 212002Z 13015KT 16/01 A2978 RMK A01 T01590011  RH  037%=      5-min Rain = 0
KMC4 212003Z 14015KT 16/01 A2978 RMK A01 T01600009  RH  036%=      5-min Rain = 0
KMC4 212004Z 13014KT 16/01 A2978 RMK A01 T01610009  RH  036%=      5-min Rain = 0
KMC4 212005Z 14016KT 16/01 A2978 RMK A01 T01620009  RH  036%=      5-min Rain = 0
KMC4 212006Z 14015KT 16/01 A2978 RMK A01 T01620008  RH  035%=      5-min Rain = 0
KMC4 212007Z 13014KT 16/01 A2977 RMK A01 T01620009  RH  035%=      5-min Rain = 0
KMC4 212008Z 13014KT 16/01 A2977 RMK A01 T01630011  RH  036%=      5-min Rain = 0
KMC4 212009Z 13015KT 17/01 A2977 RMK A01 T01650014  RH  036%=      5-min Rain = 0
KMC4 212010Z 13017KT 17/01 A2977 RMK A01 T01670012  RH  035%=      5-min Rain = 0
KMC4 212011Z 14016KT 17/01 A2977 RMK A01 T01670012  RH  035%=      5-min Rain = 0
KMC4 212012Z 14015KT 17/01 A2977 RMK A01 T01680010  RH  035%=      5-min Rain = 0
KMC4 212013Z 14015KT 17/01 A2977 RMK A01 T01680012  RH  035%=      5-min Rain = 0
KMC4 212014Z 13016KT 17/01 A2977 RMK A01 T01700013  RH  035%=      5-min Rain = 0
KMC4 212015Z 13015KT 17/01 A2977 RMK A01 T01710014  RH  035%=      5-min Rain = 0
KMC4 212016Z 13015KT 17/01 A2977 RMK A01 T01720012  RH  034%=      5-min Rain = 0
KMC4 212017Z 14015KT 17/01 A2977 RMK A01 T01720013  RH  034%=      5-min Rain = 0
KMC4 212018Z 14018KT 17/01 A2977 RMK A01 T01710012  RH  034%=      5-min Rain = 0
KMC4 212019Z 14017KT 17/01 A2977 RMK A01 T01700011  RH  034%=      5-min Rain = 0
KMC4 212020Z 14015KT 17/01 A2977 RMK A01 T01700011  RH  034%=      5-min Rain = 0
KMC4 212021Z 14015KT 17/01 A2977 RMK A01 T01700010  RH  034%=      5-min Rain = 0
KMC4 212022Z 12015G20KT 17/01 A2977 RMK A01 T01690011  RH  035%=      5-min Rain = 0
KMC4 212023Z 13016KT 17/01 A2977 RMK A01 T01690012  RH  035%=      5-min Rain = 0
KMC4 212024Z 14014KT 17/01 A2977 RMK A01 T01710014  RH  035%=      5-min Rain = 0
KMC4 212025Z 14011KT 17/01 A2977 RMK A01 T01720012  RH  034%=      5-min Rain = 0
KMC4 212026Z 14014KT 17/01 A2977 RMK A01 T01720014  RH  034%=      5-min Rain = 0
KMC4 212027Z 14013KT 17/01 A2977 RMK A01 T01730013  RH  034%=      5-min Rain = 0
KMC4 212028Z 13013KT 17/01 A2977 RMK A01 T01710010  RH  034%=      5-min Rain = 0
KMC4 212029Z 12015KT 17/01 A2977 RMK A01 T01680010  RH  034%=      5-min Rain = 0
KMC4 212030Z 13016KT 17/01 A2977 RMK A01 T01670011  RH  035%=      5-min Rain = 0
KMC4 212031Z 13014KT 17/01 A2977 RMK A01 T01660010  RH  035%=      5-min Rain = 0
KMC4 212032Z 13018KT 17/01 A2977 RMK A01 T01660011  RH  035%=      5-min Rain = 0
KMC4 212033Z 14015KT 17/01 A2977 RMK A01 T01670011  RH  035%=      5-min Rain = 0
KMC4 212034Z 14015KT 17/01 A2977 RMK A01 T01680012  RH  035%=      5-min Rain = 0
KMC4 212035Z 13018KT 17/01 A2977 RMK A01 T01680012  RH  035%=      5-min Rain = 0
KMC4 212036Z 12018KT 17/01 A2977 RMK A01 T01680011  RH  035%=      5-min Rain = 0
KMC4 212037Z 13015KT 17/01 A2977 RMK A01 T01680011  RH  035%=      5-min Rain = 0
KMC4 212038Z 12016KT 17/01 A2977 RMK A01 T01690012  RH  035%=      5-min Rain = 0
KMC4 212039Z 12017KT 17/01 A2976 RMK A01 T01700012  RH  034%=      5-min Rain = 0
KMC4 212040Z 12015KT 17/01 A2977 RMK A01 T01700013  RH  034%=      5-min Rain = 0
KMC4 212041Z 13016KT 17/01 A2977 RMK A01 T01700012  RH  034%=      5-min Rain = 0
KMC4 212042Z 12016KT 17/02 A2976 RMK A01 T01720015  RH  035%=      5-min Rain = 0
KMC4 212043Z 12016KT 17/01 A2976 RMK A01 T01730012  RH  034%=      5-min Rain = 0
KMC4 212044Z 12016KT 17/01 A2976 RMK A01 T01730012  RH  034%=      5-min Rain = 0
KMC4 212045Z 11017KT 17/01 A2976 RMK A01 T01720011  RH  034%=      5-min Rain = 0
KMC4 212046Z 12015KT 17/01 A2976 RMK A01 T01710011  RH  034%=      5-min Rain = 0
KMC4 212047Z 13014G19KT 17/01 A2976 RMK A01 T01710012  RH  034%=      5-min Rain = 0
KMC4 212048Z 12017KT 17/01 A2976 RMK A01 T01720013  RH  034%=      5-min Rain = 0
KMC4 212049Z 12015KT 17/01 A2976 RMK A01 T01730013  RH  034%=      5-min Rain = 0
KMC4 212050Z 14016KT 17/01 A2976 RMK A01 T01730013  RH  034%=      5-min Rain = 0
KMC4 212051Z 13015G20KT 18/02 A2976 RMK A01 T01760015  RH  034%=      5-min Rain = 0
KMC4 212052Z 12018KT 18/01 A2976 RMK A01 T01770013  RH  033%=      5-min Rain = 0
KMC4 212053Z 14016KT 18/01 A2976 RMK A01 T01780014  RH  033%=      5-min Rain = 0
KMC4 212054Z 14014KT 18/01 A2976 RMK A01 T01790013  RH  033%=      5-min Rain = 0
KMC4 212055Z 13018KT 18/02 A2976 RMK A01 T01800015  RH  033%=      5-min Rain = 0
KMC4 212056Z 13018KT 18/01 A2976 RMK A01 T01810012  RH  032%=      5-min Rain = 0
KMC4 212057Z 14017KT 18/01 A2976 RMK A01 T01800012  RH  032%=      5-min Rain = 0
KMC4 212058Z 14019KT 18/01 A2975 RMK A01 T01800010  RH  032%=      5-min Rain = 0
KMC4 212059Z 14017KT 18/01 A2975 RMK A01 T01790011  RH  032%=      5-min Rain = 0
KMC4 212100Z 14016KT 18/01 A2975 RMK A01 T01780011  RH  032%=      5-min Rain = 0
KMC4 212101Z 14015G20KT 18/01 A2975 RMK A01 T01780013  RH  033%=      5-min Rain = 0
KMC4 212102Z 13017KT 18/01 A2975 RMK A01 T01810014  RH  032%=      5-min Rain = 0
KMC4 212103Z 14014KT 18/01 A2975 RMK A01 T01820012  RH  032%=      5-min Rain = 0
KMC4 212104Z 13018KT 18/01 A2975 RMK A01 T01830012  RH  032%=      5-min Rain = 0
KMC4 212105Z 13017KT 18/01 A2975 RMK A01 T01820011  RH  032%=      5-min Rain = 0
KMC4 212106Z 14018KT 18/01 A2975 RMK A01 T01820013  RH  032%=      5-min Rain = 0
KMC4 212107Z 15018KT 18/01 A2975 RMK A01 T01810012  RH  032%=      5-min Rain = 0
KMC4 212108Z 15019KT 18/01 A2975 RMK A01 T01800012  RH  032%=      5-min Rain = 0
KMC4 212109Z 15018KT 18/01 A2975 RMK A01 T01780010  RH  032%=      5-min Rain = 0
KMC4 212110Z 15017KT 18/01 A2975 RMK A01 T01770011  RH  033%=      5-min Rain = 0
KMC4 212111Z 15017KT 18/01 A2975 RMK A01 T01780012  RH  033%=      5-min Rain = 0
KMC4 212112Z 15017KT 18/01 A2975 RMK A01 T01810013  RH  032%=      5-min Rain = 0
KMC4 212113Z 14016KT 18/02 A2974 RMK A01 T01830015  RH  032%=      5-min Rain = 0
KMC4 212114Z 14016KT 18/02 A2974 RMK A01 T01840017  RH  033%=      5-min Rain = 0
KMC4 212115Z 14014KT 19/02 A2975 RMK A01 T01850018  RH  033%=      5-min Rain = 0
KMC4 212116Z 14018KT 19/02 A2974 RMK A01 T01860019  RH  033%=      5-min Rain = 0
KMC4 212117Z 14020G25KT 19/02 A2974 RMK A01 T01850016  RH  032%=      5-min Rain = 0
KMC4 212118Z 15020KT 18/02 A2974 RMK A01 T01820015  RH  033%=      5-min Rain = 0
KMC4 212119Z 15020KT 18/01 A2974 RMK A01 T01800014  RH  033%=      5-min Rain = 0
KMC4 212120Z 15018KT 18/01 A2974 RMK A01 T01800014  RH  033%=      5-min Rain = 0
KMC4 212121Z 16019KT 18/01 A2974 RMK A01 T01790013  RH  033%=      5-min Rain = 0
KMC4 212122Z 15018KT 18/01 A2974 RMK A01 T01780014  RH  033%=      5-min Rain = 0
KMC4 212123Z 15021G26KT 18/02 A2974 RMK A01 T01780015  RH  033%=      5-min Rain = 0
KMC4 212124Z 15020KT 18/01 A2974 RMK A01 T01760014  RH  033%=      5-min Rain = 0
KMC4 212125Z 15021KT 17/01 A2974 RMK A01 T01740013  RH  034%=      5-min Rain = 0
KMC4 212126Z 15022KT 17/01 A2974 RMK A01 T01720013  RH  034%=      5-min Rain = 0
KMC4 212127Z 16018G23KT 17/01 A2974 RMK A01 T01700013  RH  035%=      5-min Rain = 0
KMC4 212128Z 16022KT 17/01 A2973 RMK A01 T01710013  RH  035%=      5-min Rain = 0
KMC4 212129Z 16021G26KT 17/01 A2973 RMK A01 T01700013  RH  035%=      5-min Rain = 0
KMC4 212130Z 16020G25KT 17/01 A2973 RMK A01 T01680012  RH  035%=      5-min Rain = 0
KMC4 212131Z 16021KT 17/01 A2973 RMK A01 T01680012  RH  035%=      5-min Rain = 0
KMC4 212132Z 16020KT 17/01 A2973 RMK A01 T01690012  RH  035%=      5-min Rain = 0
KMC4 212133Z 15020KT 17/01 A2973 RMK A01 T01690012  RH  035%=      5-min Rain = 0
KMC4 212134Z 16019KT 17/01 A2973 RMK A01 T01690012  RH  035%=      5-min Rain = 0
KMC4 212135Z 16021KT 17/01 A2973 RMK A01 T01700013  RH  035%=      5-min Rain = 0
KMC4 212136Z 15021KT 17/01 A2973 RMK A01 T01710013  RH  034%=      5-min Rain = 0
KMC4 212137Z 15020KT 17/01 A2973 RMK A01 T01710013  RH  034%=      5-min Rain = 0
KMC4 212138Z 16020KT 17/01 A2973 RMK A01 T01700012  RH  034%=      5-min Rain = 0
KMC4 212139Z 15018KT 17/01 A2973 RMK A01 T01710014  RH  035%=      5-min Rain = 0
KMC4 212140Z 15020KT 17/01 A2973 RMK A01 T01730014  RH  034%=      5-min Rain = 0
KMC4 212141Z 15018KT 17/01 A2973 RMK A01 T01740014  RH  034%=      5-min Rain = 0
KMC4 212142Z 15018KT 18/02 A2973 RMK A01 T01760015  RH  034%=      5-min Rain = 0
KMC4 212143Z 15017KT 18/01 A2973 RMK A01 T01760014  RH  034%=      5-min Rain = 0
KMC4 212144Z 15020KT 18/01 A2972 RMK A01 T01770013  RH  033%=      5-min Rain = 0
KMC4 212145Z 15021KT 18/01 A2972 RMK A01 T01760012  RH  033%=      5-min Rain = 0
KMC4 212146Z 16018G23KT 18/01 A2973 RMK A01 T01750013  RH  034%=      5-min Rain = 0
KMC4 212147Z 16019KT 18/01 A2973 RMK A01 T01750012  RH  033%=      5-min Rain = 0
KMC4 212148Z 15019G24KT 18/01 A2973 RMK A01 T01750013  RH  034%=      5-min Rain = 0
KMC4 212149Z 15021KT 18/01 A2973 RMK A01 T01760014  RH  034%=      5-min Rain = 0
KMC4 212150Z 15019KT 18/01 A2973 RMK A01 T01760014  RH  034%=      5-min Rain = 0
KMC4 212151Z 16022KT 18/01 A2973 RMK A01 T01760014  RH  034%=      5-min Rain = 0
KMC4 212152Z 16020G26KT 18/01 A2973 RMK A01 T01760012  RH  033%=      5-min Rain = 0
KMC4 212153Z 16020G25KT 18/01 A2973 RMK A01 T01760013  RH  033%=      5-min Rain = 0
KMC4 212154Z 15019G24KT 18/01 A2973 RMK A01 T01770014  RH  034%=      5-min Rain = 0
KMC4 212155Z 16018G23KT 18/01 A2973 RMK A01 T01780014  RH  033%=      5-min Rain = 0
KMC4 212156Z 16018KT 18/02 A2973 RMK A01 T01780015  RH  033%=      5-min Rain = 0
KMC4 212157Z 15021KT 18/02 A2973 RMK A01 T01780015  RH  033%=      5-min Rain = 0
KMC4 212158Z 15020G25KT 18/01 A2973 RMK A01 T01770014  RH  033%=      5-min Rain = 0
KMC4 212159Z 16018KT 18/01 A2973 RMK A01 T01770013  RH  033%=      5-min Rain = 0
KMC4 212200Z 15019KT 18/01 A2973 RMK A01 T01760013  RH  033%=      5-min Rain = 0
KMC4 212201Z 15018KT 18/01 A2973 RMK A01 T01760012  RH  033%=      5-min Rain = 0
KMC4 212202Z 14019KT 18/01 A2973 RMK A01 T01770013  RH  033%=      5-min Rain = 0
KMC4 212203Z 14020KT 18/01 A2973 RMK A01 T01780013  RH  033%=      5-min Rain = 0
KMC4 212204Z 15018KT 18/01 A2973 RMK A01 T01780012  RH  033%=      5-min Rain = 0
KMC4 212205Z 14015KT 18/01 A2973 RMK A01 T01770012  RH  033%=      5-min Rain = 0
KMC4 212206Z 15014G19KT 18/01 A2974 RMK A01 T01770014  RH  033%=      5-min Rain = 0
KMC4 212207Z 14018KT 18/02 A2973 RMK A01 T01800015  RH  033%=      5-min Rain = 0
KMC4 212208Z 13018KT 18/01 A2973 RMK A01 T01800013  RH  032%=      5-min Rain = 0
KMC4 212209Z 13016KT 18/01 A2973 RMK A01 T01800012  RH  032%=      5-min Rain = 0
KMC4 212210Z 14014KT 18/01 A2974 RMK A01 T01790013  RH  033%=      5-min Rain = 0
KMC4 212211Z 13014KT 18/02 A2974 RMK A01 T01800015  RH  033%=      5-min Rain = 0
KMC4 212212Z 14014KT 18/02 A2974 RMK A01 T01820016  RH  033%=      5-min Rain = 0
KMC4 212213Z 14016KT 18/02 A2973 RMK A01 T01820016  RH  033%=      5-min Rain = 0
KMC4 212214Z 13018KT 18/02 A2973 RMK A01 T01820016  RH  033%=      5-min Rain = 0
KMC4 212215Z 13019KT 18/01 A2973 RMK A01 T01810013  RH  032%=      5-min Rain = 0
KMC4 212216Z 13019KT 18/01 A2973 RMK A01 T01780012  RH  033%=      5-min Rain = 0
KMC4 212217Z 13016KT 18/01 A2974 RMK A01 T01770013  RH  033%=      5-min Rain = 0
KMC4 212218Z 11016KT 18/01 A2974 RMK A01 T01760014  RH  034%=      5-min Rain = 0
KMC4 212219Z 12016KT 18/01 A2974 RMK A01 T01750014  RH  034%=      5-min Rain = 0
KMC4 212220Z 12016KT 17/01 A2974 RMK A01 T01740013  RH  034%=      5-min Rain = 0
KMC4 212221Z 12017KT 17/01 A2974 RMK A01 T01740013  RH  034%=      5-min Rain = 0
KMC4 212222Z 12018KT 17/01 A2974 RMK A01 T01740012  RH  034%=      5-min Rain = 0
KMC4 212223Z 13013KT 17/01 A2974 RMK A01 T01720013  RH  034%=      5-min Rain = 0
KMC4 212224Z 12014KT 17/01 A2974 RMK A01 T01720014  RH  034%=      5-min Rain = 0
KMC4 212225Z 12014KT 17/01 A2974 RMK A01 T01710012  RH  034%=      5-min Rain = 0
KMC4 212226Z 12013KT 17/01 A2974 RMK A01 T01710012  RH  034%=      5-min Rain = 0
KMC4 212227Z 12014KT 17/01 A2974 RMK A01 T01720011  RH  034%=      5-min Rain = 0
KMC4 212228Z 12014KT 17/01 A2974 RMK A01 T01720011  RH  034%=      5-min Rain = 0
KMC4 212229Z 12011KT 17/01 A2974 RMK A01 T01730012  RH  034%=      5-min Rain = 0
KMC4 212230Z 11009KT 17/01 A2974 RMK A01 T01740014  RH  034%=      5-min Rain = 0
KMC4 212231Z 11013KT 17/02 A2975 RMK A01 T01740015  RH  034%=      5-min Rain = 0
KMC4 212232Z 12013KT 17/02 A2974 RMK A01 T01740015  RH  034%=      5-min Rain = 0
KMC4 212233Z 12012KT 17/02 A2975 RMK A01 T01740015  RH  034%=      5-min Rain = 0
KMC4 212234Z 12011KT 17/02 A2975 RMK A01 T01740016  RH  034%=      5-min Rain = 0
KMC4 212235Z 11008KT 17/02 A2975 RMK A01 T01730016  RH  035%=      5-min Rain = 0
KMC4 212236Z 11008KT 17/02 A2975 RMK A01 T01730017  RH  035%=      5-min Rain = 0
KMC4 212237Z 11009KT 17/02 A2975 RMK A01 T01730017  RH  035%=      5-min Rain = 0
KMC4 212238Z 11011KT 17/02 A2975 RMK A01 T01730015  RH  035%=      5-min Rain = 0
KMC4 212239Z 12008KT 17/02 A2975 RMK A01 T01730015  RH  035%=      5-min Rain = 0
KMC4 212240Z 11008G13KT 17/02 A2975 RMK A01 T01740016  RH  035%=      5-min Rain = 0
KMC4 212241Z 10010KT 18/02 A2975 RMK A01 T01750017  RH  034%=      5-min Rain = 0
KMC4 212242Z 11007KT 18/02 A2975 RMK A01 T01750017  RH  034%=      5-min Rain = 0
KMC4 212243Z 09008KT 18/02 A2975 RMK A01 T01750018  RH  035%=      5-min Rain = 0
KMC4 212244Z 11008KT 18/02 A2975 RMK A01 T01760017  RH  034%=      5-min Rain = 0
KMC4 212245Z 12007KT 18/02 A2975 RMK A01 T01750017  RH  035%=      5-min Rain = 0
KMC4 212246Z 11008KT 18/02 A2975 RMK A01 T01750018  RH  035%=      5-min Rain = 0
KMC4 212247Z 13010KT 18/02 A2975 RMK A01 T01770018  RH  034%=      5-min Rain = 0
KMC4 212248Z 12008KT 18/02 A2975 RMK A01 T01770017  RH  034%=      5-min Rain = 0
KMC4 212249Z 12008KT 18/02 A2975 RMK A01 T01780016  RH  034%=      5-min Rain = 0
KMC4 212250Z 11007KT 18/02 A2975 RMK A01 T01780019  RH  034%=      5-min Rain = 0
KMC4 212251Z 09010KT 18/02 A2975 RMK A01 T01790018  RH  034%=      5-min Rain = 0
KMC4 212252Z 11008G13KT 18/02 A2975 RMK A01 T01780017  RH  034%=      5-min Rain = 0
KMC4 212253Z 12009KT 18/02 A2975 RMK A01 T01770018  RH  034%=      5-min Rain = 0
KMC4 212254Z 11013KT 18/02 A2975 RMK A01 T01780017  RH  034%=      5-min Rain = 0
KMC4 212255Z 11013KT 18/02 A2975 RMK A01 T01760016  RH  034%=      5-min Rain = 0
KMC4 212256Z 12013KT 18/02 A2975 RMK A01 T01750016  RH  034%=      5-min Rain = 0
KMC4 212257Z 12011KT 18/02 A2975 RMK A01 T01750016  RH  034%=      5-min Rain = 0
KMC4 212258Z 11009KT 18/02 A2975 RMK A01 T01760015  RH  034%=      5-min Rain = 0
KMC4 212259Z 11011KT 18/02 A2975 RMK A01 T01760016  RH  034%=      5-min Rain = 0
KMC4 212300Z 11011KT 18/02 A2975 RMK A01 T01760016  RH  034%=      5-min Rain = 0
KMC4 212301Z 11010KT 18/02 A2976 RMK A01 T01760016  RH  034%=      5-min Rain = 0
KMC4 212302Z 14011KT 18/02 A2976 RMK A01 T01760017  RH  034%=      5-min Rain = 0
KMC4 212303Z 12009KT 18/02 A2976 RMK A01 T01770018  RH  034%=      5-min Rain = 0
KMC4 212304Z 11009KT 18/02 A2976 RMK A01 T01780018  RH  034%=      5-min Rain = 0
KMC4 212305Z 12011KT 18/02 A2976 RMK A01 T01780018  RH  034%=      5-min Rain = 0
KMC4 212306Z 14009KT 18/02 A2976 RMK A01 T01780018  RH  034%=      5-min Rain = 0
KMC4 212307Z 12011KT 18/02 A2976 RMK A01 T01780017  RH  034%=      5-min Rain = 0
KMC4 212308Z 12014KT 18/02 A2976 RMK A01 T01790016  RH  034%=      5-min Rain = 0
KMC4 212309Z 13016KT 18/01 A2976 RMK A01 T01780014  RH  033%=      5-min Rain = 0
KMC4 212310Z 14013KT 18/01 A2976 RMK A01 T01760014  RH  034%=      5-min Rain = 0
KMC4 212311Z 13011KT 18/02 A2976 RMK A01 T01760015  RH  034%=      5-min Rain = 0
KMC4 212312Z 12013KT 18/01 A2976 RMK A01 T01760014  RH  034%=      5-min Rain = 0
KMC4 212313Z 11010KT 18/01 A2976 RMK A01 T01760014  RH  034%=      5-min Rain = 0
KMC4 212314Z 13012KT 18/02 A2976 RMK A01 T01760015  RH  034%=      5-min Rain = 0
KMC4 212315Z 13009KT 18/02 A2976 RMK A01 T01760015  RH  034%=      5-min Rain = 0
KMC4 212316Z 12012KT 18/02 A2976 RMK A01 T01770016  RH  034%=      5-min Rain = 0
KMC4 212317Z 12014KT 18/02 A2976 RMK A01 T01770016  RH  034%=      5-min Rain = 0
KMC4 212318Z 13013KT 18/02 A2976 RMK A01 T01760015  RH  034%=      5-min Rain = 0
KMC4 212319Z 14013KT 18/02 A2976 RMK A01 T01760016  RH  034%=      5-min Rain = 0
KMC4 212320Z 14011KT 18/02 A2976 RMK A01 T01760015  RH  034%=      5-min Rain = 0
KMC4 212321Z 12009KT 18/02 A2976 RMK A01 T01760016  RH  034%=      5-min Rain = 0
KMC4 212322Z 11011KT 18/02 A2976 RMK A01 T01770016  RH  034%=      5-min Rain = 0
KMC4 212323Z 11011KT 18/02 A2976 RMK A01 T01760016  RH  034%=      5-min Rain = 0
KMC4 212324Z 12011KT 18/02 A2976 RMK A01 T01760016  RH  034%=      5-min Rain = 0
KMC4 212325Z 14012KT 18/02 A2976 RMK A01 T01760015  RH  034%=      5-min Rain = 0
KMC4 212326Z 14013KT 18/02 A2976 RMK A01 T01770015  RH  034%=      5-min Rain = 0
KMC4 212327Z 14014KT 18/01 A2976 RMK A01 T01770014  RH  033%=      5-min Rain = 0
KMC4 212328Z 14013KT 18/01 A2976 RMK A01 T01760013  RH  033%=      5-min Rain = 0
KMC4 212329Z 14011KT 18/01 A2976 RMK A01 T01750014  RH  034%=      5-min Rain = 0
KMC4 212330Z 13013KT 18/01 A2976 RMK A01 T01750014  RH  034%=      5-min Rain = 0
KMC4 212331Z 14014KT 18/01 A2976 RMK A01 T01750014  RH  034%=      5-min Rain = 0
KMC4 212332Z 13015KT 17/01 A2976 RMK A01 T01740014  RH  034%=      5-min Rain = 0
KMC4 212333Z 13013KT 17/02 A2976 RMK A01 T01730015  RH  034%=      5-min Rain = 0
KMC4 212334Z 13011KT 17/02 A2976 RMK A01 T01730015  RH  034%=      5-min Rain = 0
KMC4 212335Z 13013KT 17/02 A2976 RMK A01 T01730015  RH  034%=      5-min Rain = 0
KMC4 212336Z 14015KT 17/02 A2976 RMK A01 T01740016  RH  035%=      5-min Rain = 0
KMC4 212337Z 14013KT 17/01 A2976 RMK A01 T01740014  RH  034%=      5-min Rain = 0
KMC4 212338Z 13012KT 17/01 A2976 RMK A01 T01740014  RH  034%=      5-min Rain = 0
KMC4 212339Z 12014KT 17/02 A2976 RMK A01 T01730016  RH  035%=      5-min Rain = 0
KMC4 212340Z 13017KT 17/02 A2976 RMK A01 T01730015  RH  035%=      5-min Rain = 0
KMC4 212341Z 14017KT 17/02 A2976 RMK A01 T01720015  RH  035%=      5-min Rain = 0
KMC4 212342Z 14014KT 17/02 A2977 RMK A01 T01710015  RH  035%=      5-min Rain = 0
KMC4 212343Z 15013KT 17/02 A2977 RMK A01 T01710015  RH  035%=      5-min Rain = 0
KMC4 212344Z 15017KT 17/01 A2976 RMK A01 T01700014  RH  035%=      5-min Rain = 0
KMC4 212345Z 15016KT 17/01 A2976 RMK A01 T01690013  RH  035%=      5-min Rain = 0
KMC4 212346Z 15014KT 17/01 A2976 RMK A01 T01680013  RH  035%=      5-min Rain = 0
KMC4 212347Z 16016KT 17/01 A2976 RMK A01 T01670013  RH  035%=      5-min Rain = 0
KMC4 212348Z 15014KT 17/01 A2976 RMK A01 T01670014  RH  036%=      5-min Rain = 0
KMC4 212349Z 15014KT 17/02 A2976 RMK A01 T01670015  RH  036%=      5-min Rain = 0
KMC4 212350Z 15013KT 17/01 A2976 RMK A01 T01670014  RH  036%=      5-min Rain = 0
KMC4 212351Z 14010KT 17/02 A2976 RMK A01 T01670015  RH  036%=      5-min Rain = 0
KMC4 212352Z 14014KT 17/02 A2977 RMK A01 T01670016  RH  036%=      5-min Rain = 0
KMC4 212353Z 14013KT 17/02 A2976 RMK A01 T01670015  RH  036%=      5-min Rain = 0
KMC4 212354Z 14014KT 17/02 A2977 RMK A01 T01660015  RH  036%=      5-min Rain = 0
KMC4 212355Z 14012KT 17/02 A2977 RMK A01 T01660015  RH  036%=      5-min Rain = 0
KMC4 212356Z 14010KT 17/02 A2977 RMK A01 T01650015  RH  036%=      5-min Rain = 0
KMC4 212357Z 13010KT 17/02 A2977 RMK A01 T01650016  RH  036%=      5-min Rain = 0
KMC4 212358Z 15013KT 17/02 A2977 RMK A01 T01660016  RH  036%=      5-min Rain = 0
KMC4 212359Z 13010KT 17/02 A2977 RMK A01 T01650015  RH  036%=      5-min Rain = 0
KMC4 220000Z 14013KT 16/02 A2977 RMK A01 T01640015  RH  037%=      5-min Rain = 0
KMC4 220001Z 14015G21KT 16/02 A2977 RMK A01 T01640015  RH  037%=      5-min Rain = 0
KMC4 220002Z 13012KT 16/02 A2977 RMK A01 T01630016  RH  037%=      5-min Rain = 0
KMC4 220003Z 13011KT 16/02 A2977 RMK A01 T01630016  RH  037%=      5-min Rain = 0
KMC4 220004Z 13012KT 16/02 A2977 RMK A01 T01620016  RH  037%=      5-min Rain = 0
KMC4 220005Z 12012KT 16/02 A2977 RMK A01 T01620016  RH  037%=      5-min Rain = 0
KMC4 220006Z 12010KT 16/02 A2977 RMK A01 T01620016  RH  037%=      5-min Rain = 0
KMC4 220007Z 11011KT 16/02 A2977 RMK A01 T01610016  RH  038%=      5-min Rain = 0
KMC4 220008Z 12014KT 16/02 A2977 RMK A01 T01610016  RH  038%=      5-min Rain = 0
KMC4 220009Z 11012KT 16/02 A2977 RMK A01 T01600016  RH  038%=      5-min Rain = 0
KMC4 220010Z 11012KT 16/02 A2977 RMK A01 T01590017  RH  038%=      5-min Rain = 0
KMC4 220011Z 11013KT 16/02 A2977 RMK A01 T01590017  RH  038%=      5-min Rain = 0
KMC4 220012Z 12011KT 16/02 A2977 RMK A01 T01580017  RH  038%=      5-min Rain = 0
KMC4 220013Z 12010KT 16/02 A2977 RMK A01 T01580018  RH  039%=      5-min Rain = 0
KMC4 220014Z 11010KT 16/02 A2977 RMK A01 T01580017  RH  039%=      5-min Rain = 0
KMC4 220015Z 11009KT 16/02 A2977 RMK A01 T01580018  RH  039%=      5-min Rain = 0
KMC4 220016Z 12011KT 16/02 A2977 RMK A01 T01570018  RH  039%=      5-min Rain = 0
KMC4 220017Z 12013KT 16/02 A2977 RMK A01 T01570018  RH  039%=      5-min Rain = 0
KMC4 220018Z 12012KT 16/02 A2977 RMK A01 T01560019  RH  039%=      5-min Rain = 0
KMC4 220019Z 12010G16KT 16/02 A2977 RMK A01 T01560019  RH  040%=      5-min Rain = 0
KMC4 220020Z 12012KT 16/02 A2977 RMK A01 T01550019  RH  040%=      5-min Rain = 0
KMC4 220021Z 12012KT 16/02 A2977 RMK A01 T01550019  RH  040%=      5-min Rain = 0
KMC4 220022Z 13014KT 16/02 A2977 RMK A01 T01550019  RH  040%=      5-min Rain = 0
KMC4 220023Z 11012KT 15/02 A2977 RMK A01 T01540019  RH  040%=      5-min Rain = 0
KMC4 220024Z 12010KT 15/02 A2977 RMK A01 T01540019  RH  040%=      5-min Rain = 0
KMC4 220025Z 12008KT 15/02 A2977 RMK A01 T01540019  RH  040%=      5-min Rain = 0
KMC4 220026Z 12010KT 15/02 A2977 RMK A01 T01530019  RH  040%=      5-min Rain = 0
KMC4 220027Z 11010KT 15/02 A2977 RMK A01 T01530019  RH  040%=      5-min Rain = 0
KMC4 220028Z 11010KT 15/02 A2977 RMK A01 T01520019  RH  041%=      5-min Rain = 0
KMC4 220029Z 10010KT 15/02 A2977 RMK A01 T01520019  RH  041%=      5-min Rain = 0
KMC4 220030Z 11012KT 15/02 A2977 RMK A01 T01520020  RH  041%=      5-min Rain = 0
KMC4 220031Z 11009KT 15/02 A2977 RMK A01 T01510020  RH  041%=      5-min Rain = 0
KMC4 220032Z 12011KT 15/02 A2977 RMK A01 T01510020  RH  041%=      5-min Rain = 0
KMC4 220033Z 12009KT 15/02 A2977 RMK A01 T01500021  RH  041%=      5-min Rain = 0
KMC4 220034Z 11010KT 15/02 A2977 RMK A01 T01490020  RH  042%=      5-min Rain = 0
KMC4 220035Z 11010KT 15/02 A2977 RMK A01 T01490020  RH  042%=      5-min Rain = 0
KMC4 220036Z 11009KT 15/02 A2977 RMK A01 T01480021  RH  042%=      5-min Rain = 0
KMC4 220037Z 11011KT 15/02 A2977 RMK A01 T01470020  RH  042%=      5-min Rain = 0
KMC4 220038Z 11008KT 15/02 A2977 RMK A01 T01470021  RH  042%=      5-min Rain = 0
KMC4 220039Z 11009KT 15/02 A2978 RMK A01 T01470021  RH  042%=      5-min Rain = 0
KMC4 220040Z 11010KT 15/02 A2978 RMK A01 T01470021  RH  043%=      5-min Rain = 0
KMC4 220041Z 11008KT 15/02 A2978 RMK A01 T01470021  RH  043%=      5-min Rain = 0
KMC4 220042Z 10008KT 15/02 A2978 RMK A01 T01460021  RH  043%=      5-min Rain = 0
KMC4 220043Z 11008KT 15/02 A2978 RMK A01 T01450021  RH  043%=      5-min Rain = 0
KMC4 220044Z 11009KT 15/02 A2978 RMK A01 T01450021  RH  043%=      5-min Rain = 0
KMC4 220045Z 11008KT 14/02 A2978 RMK A01 T01440021  RH  043%=      5-min Rain = 0
KMC4 220046Z 12009KT 14/02 A2978 RMK A01 T01430021  RH  044%=      5-min Rain = 0
KMC4 220047Z 12010KT 14/02 A2978 RMK A01 T01440022  RH  044%=      5-min Rain = 0
KMC4 220048Z 12009KT 14/02 A2978 RMK A01 T01440022  RH  044%=      5-min Rain = 0
KMC4 220049Z 12010KT 14/02 A2978 RMK A01 T01430021  RH  044%=      5-min Rain = 0
KMC4 220050Z 12011KT 14/02 A2978 RMK A01 T01430021  RH  044%=      5-min Rain = 0
KMC4 220051Z 13010KT 14/02 A2978 RMK A01 T01430021  RH  044%=      5-min Rain = 0
KMC4 220052Z 13012KT 14/02 A2978 RMK A01 T01420021  RH  044%=      5-min Rain = 0
KMC4 220053Z 13011KT 14/02 A2978 RMK A01 T01420022  RH  044%=      5-min Rain = 0
KMC4 220054Z 14013KT 14/02 A2978 RMK A01 T01420022  RH  044%=      5-min Rain = 0
KMC4 220055Z 13013KT 14/02 A2978 RMK A01 T01420022  RH  044%=      5-min Rain = 0
KMC4 220056Z 13011KT 14/02 A2978 RMK A01 T01420022  RH  044%=      5-min Rain = 0
KMC4 220057Z 14013KT 14/02 A2978 RMK A01 T01410022  RH  044%=      5-min Rain = 0
KMC4 220058Z 14012KT 14/02 A2978 RMK A01 T01410022  RH  044%=      5-min Rain = 0
KMC4 220059Z 14012KT 14/02 A2978 RMK A01 T01400022  RH  045%=      5-min Rain = 0
KMC4 220100Z 14013KT 14/02 A2978 RMK A01 T01400022  RH  045%=      5-min Rain = 0
KMC4 220101Z 14013KT 14/02 A2978 RMK A01 T01400022  RH  045%=      5-min Rain = 0
KMC4 220102Z 14014KT 14/02 A2978 RMK A01 T01400022  RH  045%=      5-min Rain = 0
KMC4 220103Z 14013KT 14/02 A2978 RMK A01 T01400022  RH  045%=      5-min Rain = 0
KMC4 220104Z 15012KT 14/02 A2978 RMK A01 T01400022  RH  045%=      5-min Rain = 0
KMC4 220105Z 14013KT 14/02 A2978 RMK A01 T01400022  RH  045%=      5-min Rain = 0
KMC4 220106Z 14013KT 14/02 A2978 RMK A01 T01390022  RH  045%=      5-min Rain = 0
KMC4 220107Z 14012KT 14/02 A2978 RMK A01 T01390022  RH  045%=      5-min Rain = 0
KMC4 220108Z 14012KT 14/02 A2978 RMK A01 T01390022  RH  045%=      5-min Rain = 0
KMC4 220109Z 14013KT 14/02 A2978 RMK A01 T01380022  RH  045%=      5-min Rain = 0
KMC4 220110Z 14013KT 14/02 A2978 RMK A01 T01390022  RH  045%=      5-min Rain = 0
KMC4 220111Z 14012KT 14/02 A2978 RMK A01 T01390022  RH  045%=      5-min Rain = 0
KMC4 220112Z 14012G17KT 14/02 A2978 RMK A01 T01380022  RH  045%=      5-min Rain = 0
KMC4 220113Z 14015KT 14/02 A2978 RMK A01 T01380022  RH  045%=      5-min Rain = 0
KMC4 220114Z 15014KT 14/02 A2978 RMK A01 T01390022  RH  045%=      5-min Rain = 0
KMC4 220115Z 14012KT 14/02 A2978 RMK A01 T01400022  RH  045%=      5-min Rain = 0
KMC4 220116Z 14013KT 14/02 A2978 RMK A01 T01390022  RH  045%=      5-min Rain = 0
KMC4 220117Z 14013KT 14/02 A2978 RMK A01 T01390022  RH  045%=      5-min Rain = 0
KMC4 220118Z 14013KT 14/02 A2978 RMK A01 T01390022  RH  045%=      5-min Rain = 0
KMC4 220119Z 14014KT 14/02 A2978 RMK A01 T01380022  RH  045%=      5-min Rain = 0
KMC4 220120Z 14012KT 14/02 A2978 RMK A01 T01380022  RH  045%=      5-min Rain = 0
KMC4 220121Z 14013KT 14/02 A2978 RMK A01 T01380022  RH  045%=      5-min Rain = 0
KMC4 220122Z 14013KT 14/02 A2978 RMK A01 T01380022  RH  046%=      5-min Rain = 0
KMC4 220123Z 14012KT 14/02 A2978 RMK A01 T01370022  RH  046%=      5-min Rain = 0
KMC4 220124Z 13013KT 14/02 A2978 RMK A01 T01360022  RH  046%=      5-min Rain = 0
KMC4 220125Z 13013KT 14/02 A2978 RMK A01 T01370022  RH  046%=      5-min Rain = 0
KMC4 220126Z 13013KT 14/02 A2978 RMK A01 T01360022  RH  046%=      5-min Rain = 0
KMC4 220127Z 14012KT 14/02 A2978 RMK A01 T01360022  RH  046%=      5-min Rain = 0
KMC4 220128Z 13012KT 14/02 A2978 RMK A01 T01360022  RH  046%=      5-min Rain = 0
KMC4 220129Z 14012KT 14/02 A2978 RMK A01 T01360022  RH  046%=      5-min Rain = 0
KMC4 220130Z 14010KT 14/02 A2979 RMK A01 T01350022  RH  046%=      5-min Rain = 0
KMC4 220131Z 13010KT 13/02 A2979 RMK A01 T01340022  RH  046%=      5-min Rain = 0
KMC4 220132Z 13010KT 13/02 A2979 RMK A01 T01340022  RH  047%=      5-min Rain = 0
KMC4 220133Z 12010KT 13/02 A2979 RMK A01 T01340022  RH  047%=      5-min Rain = 0
KMC4 220134Z 13010KT 13/02 A2979 RMK A01 T01340021  RH  047%=      5-min Rain = 0
KMC4 220135Z 13010KT 13/02 A2979 RMK A01 T01330021  RH  046%=      5-min Rain = 0
KMC4 220136Z 13009KT 13/02 A2979 RMK A01 T01340022  RH  046%=      5-min Rain = 0
KMC4 220137Z 12009KT 13/02 A2979 RMK A01 T01340022  RH  046%=      5-min Rain = 0
KMC4 220138Z 12009KT 13/02 A2979 RMK A01 T01330021  RH  047%=      5-min Rain = 0
KMC4 220139Z 12009KT 13/02 A2979 RMK A01 T01340022  RH  047%=      5-min Rain = 0
KMC4 220140Z 12009KT 13/02 A2979 RMK A01 T01340022  RH  047%=      5-min Rain = 0
KMC4 220141Z 11009KT 13/02 A2979 RMK A01 T01340022  RH  047%=      5-min Rain = 0
KMC4 220142Z 11010KT 13/02 A2979 RMK A01 T01340021  RH  046%=      5-min Rain = 0
KMC4 220143Z 10008KT 13/02 A2979 RMK A01 T01340022  RH  046%=      5-min Rain = 0
KMC4 220144Z 11008KT 14/02 A2979 RMK A01 T01350021  RH  046%=      5-min Rain = 0
KMC4 220145Z 10006KT 14/02 A298 RMK A01 T01350022  RH  046%=      5-min Rain = 0
KMC4 220146Z 09008KT 14/02 A2979 RMK A01 T01350021  RH  046%=      5-min Rain = 0
KMC4 220147Z 10010KT 13/02 A2979 RMK A01 T01340021  RH  046%=      5-min Rain = 0
KMC4 220148Z 09007KT 14/02 A298 RMK A01 T01350021  RH  046%=      5-min Rain = 0
KMC4 220149Z 08007KT 13/02 A298 RMK A01 T01340021  RH  046%=      5-min Rain = 0
KMC4 220150Z 09009KT 13/02 A298 RMK A01 T01320021  RH  047%=      5-min Rain = 0
KMC4 220151Z 10008KT 13/02 A298 RMK A01 T01320021  RH  047%=      5-min Rain = 0
KMC4 220152Z 10007KT 13/02 A298 RMK A01 T01320021  RH  047%=      5-min Rain = 0
KMC4 220153Z 09008KT 13/02 A298 RMK A01 T01310020  RH  047%=      5-min Rain = 0
KMC4 220154Z 09009KT 13/02 A298 RMK A01 T01310021  RH  047%=      5-min Rain = 0
KMC4 220155Z 09008KT 13/02 A298 RMK A01 T01310020  RH  047%=      5-min Rain = 0
KMC4 220156Z 10009KT 13/02 A298 RMK A01 T01320021  RH  047%=      5-min Rain = 0
KMC4 220157Z 11010KT 13/02 A298 RMK A01 T01320021  RH  047%=      5-min Rain = 0
KMC4 220158Z 11010KT 13/02 A298 RMK A01 T01320020  RH  047%=      5-min Rain = 0
KMC4 220159Z 11011KT 13/02 A298 RMK A01 T01320020  RH  047%=      5-min Rain = 0
KMC4 220200Z 11011KT 13/02 A298 RMK A01 T01320020  RH  047%=      5-min Rain = 0
KMC4 220201Z 11010KT 13/02 A298 RMK A01 T01320021  RH  047%=      5-min Rain = 0
KMC4 220202Z 11009KT 13/02 A298 RMK A01 T01320020  RH  047%=      5-min Rain = 0
KMC4 220203Z 11009KT 13/02 A298 RMK A01 T01320020  RH  047%=      5-min Rain = 0
KMC4 220204Z 11010KT 13/02 A298 RMK A01 T01320020  RH  047%=      5-min Rain = 0
KMC4 220205Z 11010KT 13/02 A298 RMK A01 T01320020  RH  047%=      5-min Rain = 0
KMC4 220206Z 12011KT 13/02 A298 RMK A01 T01310020  RH  047%=      5-min Rain = 0
KMC4 220207Z 12012KT 13/02 A298 RMK A01 T01310020  RH  047%=      5-min Rain = 0
KMC4 220208Z 12013KT 13/02 A298 RMK A01 T01310020  RH  047%=      5-min Rain = 0
KMC4 220209Z 12013KT 13/02 A298 RMK A01 T01320021  RH  047%=      5-min Rain = 0
KMC4 220210Z 13012KT 13/02 A298 RMK A01 T01330021  RH  047%=      5-min Rain = 0
KMC4 220211Z 12010KT 13/02 A298 RMK A01 T01320021  RH  047%=      5-min Rain = 0
KMC4 220212Z 12012KT 13/02 A298 RMK A01 T01310020  RH  047%=      5-min Rain = 0
KMC4 220213Z 12011KT 13/02 A298 RMK A01 T01310021  RH  047%=      5-min Rain = 0
KMC4 220214Z 13013KT 13/02 A298 RMK A01 T01310021  RH  047%=      5-min Rain = 0
KMC4 220215Z 13010KT 13/02 A298 RMK A01 T01300021  RH  047%=      5-min Rain = 0
KMC4 220216Z 13012G18KT 13/02 A298 RMK A01 T01300021  RH  047%=      5-min Rain = 0
KMC4 220217Z 14014KT 13/02 A298 RMK A01 T01290021  RH  048%=      5-min Rain = 0
KMC4 220218Z 13013KT 13/02 A298 RMK A01 T01300021  RH  047%=      5-min Rain = 0
KMC4 220219Z 13016KT 13/02 A298 RMK A01 T01300021  RH  047%=      5-min Rain = 0
KMC4 220220Z 13016KT 13/02 A298 RMK A01 T01300021  RH  047%=      5-min Rain = 0
KMC4 220221Z 13015KT 13/02 A298 RMK A01 T01300021  RH  047%=      5-min Rain = 0
KMC4 220222Z 13014G19KT 13/02 A298 RMK A01 T01300021  RH  047%=      5-min Rain = 0
KMC4 220223Z 13014KT 13/02 A298 RMK A01 T01300021  RH  047%=      5-min Rain = 0
KMC4 220224Z 14016KT 13/02 A298 RMK A01 T01300021  RH  048%=      5-min Rain = 0
KMC4 220225Z 14015KT 13/02 A298 RMK A01 T01300021  RH  048%=      5-min Rain = 0
KMC4 220226Z 13014KT 13/02 A2981 RMK A01 T01290021  RH  048%=      5-min Rain = 0
KMC4 220227Z 13014KT 13/02 A2981 RMK A01 T01290021  RH  048%=      5-min Rain = 0
KMC4 220228Z 13012G18KT 13/02 A2981 RMK A01 T01290021  RH  048%=      5-min Rain = 0
KMC4 220229Z 13013KT 13/02 A2981 RMK A01 T01280021  RH  048%=      5-min Rain = 0
KMC4 220230Z 13012G17KT 13/02 A2981 RMK A01 T01280021  RH  048%=      5-min Rain = 0
KMC4 220231Z 13013KT 13/02 A2981 RMK A01 T01270021  RH  048%=      5-min Rain = 0
KMC4 220232Z 12012KT 13/02 A2981 RMK A01 T01270021  RH  048%=      5-min Rain = 0
KMC4 220233Z 12011KT 13/02 A2981 RMK A01 T01270021  RH  048%=      5-min Rain = 0
KMC4 220234Z 13012KT 13/02 A2981 RMK A01 T01260021  RH  049%=      5-min Rain = 0
KMC4 220235Z 12010KT 13/02 A2981 RMK A01 T01260021  RH  049%=      5-min Rain = 0
KMC4 220236Z 12010KT 13/02 A2981 RMK A01 T01250021  RH  049%=      5-min Rain = 0
KMC4 220237Z 12011KT 13/02 A2981 RMK A01 T01250021  RH  049%=      5-min Rain = 0
KMC4 220238Z 12011KT 12/02 A2981 RMK A01 T01240021  RH  049%=      5-min Rain = 0
KMC4 220239Z 11008KT 13/02 A2981 RMK A01 T01250021  RH  049%=      5-min Rain = 0
KMC4 220240Z 11010KT 12/02 A2981 RMK A01 T01240021  RH  050%=      5-min Rain = 0
KMC4 220241Z 12011G16KT 12/02 A2981 RMK A01 T01230021  RH  050%=      5-min Rain = 0
KMC4 220242Z 12013KT 12/02 A2982 RMK A01 T01230021  RH  050%=      5-min Rain = 0
KMC4 220243Z 12011KT 12/02 A2982 RMK A01 T01230022  RH  050%=      5-min Rain = 0
KMC4 220244Z 12012KT 12/02 A2982 RMK A01 T01230022  RH  050%=      5-min Rain = 0
KMC4 220245Z 11011KT 12/02 A2982 RMK A01 T01230022  RH  050%=      5-min Rain = 0
KMC4 220246Z 11009KT 12/02 A2982 RMK A01 T01230022  RH  050%=      5-min Rain = 0
KMC4 220247Z 12011KT 12/02 A2982 RMK A01 T01230022  RH  050%=      5-min Rain = 0
KMC4 220248Z 12011KT 12/02 A2982 RMK A01 T01230022  RH  050%=      5-min Rain = 0
KMC4 220249Z 12011KT 12/02 A2982 RMK A01 T01230023  RH  050%=      5-min Rain = 0
KMC4 220250Z 12012KT 12/02 A2982 RMK A01 T01220023  RH  050%=      5-min Rain = 0
KMC4 220251Z 12010KT 12/02 A2982 RMK A01 T01220023  RH  051%=      5-min Rain = 0
KMC4 220252Z 13012KT 12/02 A2982 RMK A01 T01220023  RH  051%=      5-min Rain = 0
KMC4 220253Z 13013KT 12/02 A2981 RMK A01 T01210023  RH  051%=      5-min Rain = 0
KMC4 220254Z 13012KT 12/02 A2981 RMK A01 T01210023  RH  051%=      5-min Rain = 0
KMC4 220255Z 12012KT 12/02 A2981 RMK A01 T01210023  RH  051%=      5-min Rain = 0
KMC4 220256Z 13014KT 12/02 A2981 RMK A01 T01210024  RH  051%=      5-min Rain = 0
KMC4 220257Z 13013KT 12/02 A2981 RMK A01 T01210024  RH  051%=      5-min Rain = 0
KMC4 220258Z 13013KT 12/02 A2981 RMK A01 T01210024  RH  051%=      5-min Rain = 0
KMC4 220259Z 14012KT 12/02 A2981 RMK A01 T01200024  RH  052%=      5-min Rain = 0
KMC4 220300Z 13013KT 12/02 A2981 RMK A01 T01200024  RH  052%=      5-min Rain = 0
KMC4 220301Z 14012KT 12/02 A2981 RMK A01 T01200024  RH  052%=      5-min Rain = 0
KMC4 220302Z 13013KT 12/02 A2981 RMK A01 T01200024  RH  052%=      5-min Rain = 0
KMC4 220303Z 13012KT 12/02 A2981 RMK A01 T01200024  RH  052%=      5-min Rain = 0
KMC4 220304Z 14013KT 12/02 A2981 RMK A01 T01190024  RH  052%=      5-min Rain = 0
KMC4 220305Z 13011KT 12/02 A2981 RMK A01 T01190024  RH  052%=      5-min Rain = 0
KMC4 220306Z 13012KT 12/02 A2981 RMK A01 T01180024  RH  052%=      5-min Rain = 0
KMC4 220307Z 13011KT 12/02 A2981 RMK A01 T01180024  RH  052%=      5-min Rain = 0
KMC4 220308Z 13012KT 12/02 A2981 RMK A01 T01180024  RH  052%=      5-min Rain = 0
KMC4 220309Z 13011KT 12/03 A2981 RMK A01 T01180025  RH  053%=      5-min Rain = 0
KMC4 220310Z 13009KT 12/02 A2981 RMK A01 T01180024  RH  053%=      5-min Rain = 0
KMC4 220311Z 13008KT 12/03 A2982 RMK A01 T01180025  RH  053%=      5-min Rain = 0
KMC4 220312Z 13009KT 12/02 A2982 RMK A01 T01170024  RH  053%=      5-min Rain = 0
KMC4 220313Z 13011KT 12/02 A2981 RMK A01 T01160024  RH  053%=      5-min Rain = 0
KMC4 220314Z 13011KT 12/03 A2981 RMK A01 T01160025  RH  053%=      5-min Rain = 0
KMC4 220315Z 13011KT 12/03 A2981 RMK A01 T01170025  RH  053%=      5-min Rain = 0
KMC4 220316Z 13012KT 12/03 A2981 RMK A01 T01170025  RH  053%=      5-min Rain = 0
KMC4 220317Z 14010KT 12/03 A2982 RMK A01 T01170025  RH  053%=      5-min Rain = 0
KMC4 220318Z 13009KT 12/03 A2982 RMK A01 T01170025  RH  053%=      5-min Rain = 0
KMC4 220319Z 12013KT 12/03 A2982 RMK A01 T01170025  RH  053%=      5-min Rain = 0
KMC4 220320Z 13011KT 12/03 A2982 RMK A01 T01170025  RH  053%=      5-min Rain = 0
KMC4 220321Z 13010KT 12/03 A2982 RMK A01 T01180025  RH  053%=      5-min Rain = 0
KMC4 220322Z 13011KT 12/03 A2982 RMK A01 T01180025  RH  053%=      5-min Rain = 0
KMC4 220323Z 12009KT 12/03 A2982 RMK A01 T01180026  RH  053%=      5-min Rain = 0
KMC4 220324Z 12009KT 12/03 A2982 RMK A01 T01170025  RH  053%=      5-min Rain = 0
KMC4 220325Z 12010KT 12/03 A2982 RMK A01 T01160025  RH  053%=      5-min Rain = 0
KMC4 220326Z 12009KT 12/03 A2982 RMK A01 T01160025  RH  054%=      5-min Rain = 0
KMC4 220327Z 12009KT 12/03 A2982 RMK A01 T01160025  RH  054%=      5-min Rain = 0
KMC4 220328Z 11008KT 12/03 A2982 RMK A01 T01170025  RH  054%=      5-min Rain = 0
KMC4 220329Z 11008KT 12/03 A2982 RMK A01 T01170026  RH  054%=      5-min Rain = 0
KMC4 220330Z 11010KT 12/03 A2982 RMK A01 T01170026  RH  054%=      5-min Rain = 0
KMC4 220331Z 11008KT 12/03 A2982 RMK A01 T01170026  RH  054%=      5-min Rain = 0
KMC4 220332Z 10009KT 12/03 A2982 RMK A01 T01170026  RH  054%=      5-min Rain = 0
KMC4 220333Z 11010KT 12/03 A2982 RMK A01 T01170025  RH  054%=      5-min Rain = 0
KMC4 220334Z 10007KT 12/03 A2982 RMK A01 T01170026  RH  053%=      5-min Rain = 0
KMC4 220335Z 09009KT 12/03 A2982 RMK A01 T01170026  RH  054%=      5-min Rain = 0
KMC4 220336Z 10010KT 12/03 A2982 RMK A01 T01160025  RH  054%=      5-min Rain = 0
KMC4 220337Z 10010KT 12/03 A2982 RMK A01 T01160025  RH  054%=      5-min Rain = 0
KMC4 220338Z 10010KT 12/03 A2982 RMK A01 T01160025  RH  053%=      5-min Rain = 0
KMC4 220339Z 10009KT 12/03 A2982 RMK A01 T01160025  RH  053%=      5-min Rain = 0
KMC4 220340Z 10011KT 12/03 A2982 RMK A01 T01160025  RH  053%=      5-min Rain = 0
KMC4 220341Z 10011KT 12/03 A2982 RMK A01 T01160025  RH  053%=      5-min Rain = 0
KMC4 220342Z 11011KT 12/03 A2982 RMK A01 T01160025  RH  053%=      5-min Rain = 0
KMC4 220343Z 11012KT 12/03 A2982 RMK A01 T01160025  RH  053%=      5-min Rain = 0
KMC4 220344Z 11012KT 12/03 A2982 RMK A01 T01170025  RH  053%=      5-min Rain = 0
KMC4 220345Z 10010KT 12/03 A2982 RMK A01 T01170025  RH  053%=      5-min Rain = 0
KMC4 220346Z 11011G16KT 12/02 A2982 RMK A01 T01170024  RH  053%=      5-min Rain = 0
KMC4 220347Z 11012KT 12/02 A2982 RMK A01 T01170024  RH  053%=      5-min Rain = 0
KMC4 220348Z 11011KT 12/02 A2982 RMK A01 T01170024  RH  053%=      5-min Rain = 0
KMC4 220349Z 12012KT 12/02 A2982 RMK A01 T01170024  RH  053%=      5-min Rain = 0
KMC4 220350Z 11011KT 12/02 A2982 RMK A01 T01170024  RH  053%=      5-min Rain = 0
KMC4 220351Z 11011KT 12/02 A2982 RMK A01 T01170024  RH  053%=      5-min Rain = 0
KMC4 220352Z 11013KT 12/02 A2982 RMK A01 T01170024  RH  053%=      5-min Rain = 0
KMC4 220353Z 11012KT 12/02 A2982 RMK A01 T01170024  RH  053%=      5-min Rain = 0
KMC4 220354Z 11011KT 12/02 A2982 RMK A01 T01170024  RH  053%=      5-min Rain = 0
KMC4 220355Z 11011KT 12/02 A2982 RMK A01 T01170023  RH  053%=      5-min Rain = 0
KMC4 220356Z 11011KT 12/02 A2982 RMK A01 T01160023  RH  053%=      5-min Rain = 0
KMC4 220357Z 11011KT 12/02 A2982 RMK A01 T01160024  RH  053%=      5-min Rain = 0
KMC4 220358Z 11011KT 12/02 A2982 RMK A01 T01160024  RH  053%=      5-min Rain = 0
KMC4 220359Z 12010KT 12/02 A2982 RMK A01 T01150023  RH  053%=      5-min Rain = 0
KMC4 220400Z 11011KT 11/02 A2982 RMK A01 T01140023  RH  054%=      5-min Rain = 0
KMC4 220401Z 12010KT 11/02 A2982 RMK A01 T01140023  RH  054%=      5-min Rain = 0
KMC4 220402Z 11010KT 11/02 A2982 RMK A01 T01130023  RH  054%=      5-min Rain = 0
KMC4 220403Z 12011KT 11/02 A2983 RMK A01 T01130023  RH  054%=      5-min Rain = 0
KMC4 220404Z 12011KT 11/02 A2983 RMK A01 T01130023  RH  054%=      5-min Rain = 0
KMC4 220405Z 12012KT 11/02 A2983 RMK A01 T01130023  RH  054%=      5-min Rain = 0
KMC4 220406Z 11010KT 11/02 A2983 RMK A01 T01130023  RH  054%=      5-min Rain = 0
KMC4 220407Z 11011G16KT 11/02 A2983 RMK A01 T01140023  RH  054%=      5-min Rain = 0
KMC4 220408Z 11011KT 11/02 A2982 RMK A01 T01130023  RH  054%=      5-min Rain = 0
KMC4 220409Z 11010KT 11/02 A2983 RMK A01 T01130023  RH  054%=      5-min Rain = 0
KMC4 220410Z 10010KT 11/02 A2983 RMK A01 T01130023  RH  054%=      5-min Rain = 0
KMC4 220411Z 11012KT 11/02 A2983 RMK A01 T01140023  RH  054%=      5-min Rain = 0
KMC4 220412Z 11011KT 11/02 A2983 RMK A01 T01140023  RH  054%=      5-min Rain = 0
KMC4 220413Z 11011KT 11/02 A2983 RMK A01 T01140023  RH  054%=      5-min Rain = 0
KMC4 220414Z 11010KT 11/02 A2983 RMK A01 T01140023  RH  054%=      5-min Rain = 0
KMC4 220415Z 11012KT 11/02 A2983 RMK A01 T01140023  RH  054%=      5-min Rain = 0
KMC4 220416Z 11010KT 11/02 A2983 RMK A01 T01140023  RH  054%=      5-min Rain = 0
KMC4 220417Z 10010KT 11/02 A2983 RMK A01 T01140023  RH  054%=      5-min Rain = 0
KMC4 220418Z 11010KT 11/02 A2983 RMK A01 T01130023  RH  054%=      5-min Rain = 0
KMC4 220419Z 11009KT 11/02 A2983 RMK A01 T01130023  RH  054%=      5-min Rain = 0
KMC4 220420Z 11010KT 11/02 A2983 RMK A01 T01120022  RH  054%=      5-min Rain = 0
KMC4 220421Z 11011KT 11/02 A2983 RMK A01 T01110022  RH  054%=      5-min Rain = 0
KMC4 220422Z 11010KT 11/02 A2983 RMK A01 T01110023  RH  054%=      5-min Rain = 0
KMC4 220423Z 12009KT 11/02 A2983 RMK A01 T01110023  RH  054%=      5-min Rain = 0
KMC4 220424Z 12010KT 11/02 A2983 RMK A01 T01100022  RH  055%=      5-min Rain = 0
KMC4 220425Z 12011KT 11/02 A2983 RMK A01 T01090022  RH  055%=      5-min Rain = 0
KMC4 220426Z 12010KT 11/02 A2983 RMK A01 T01090023  RH  055%=      5-min Rain = 0
KMC4 220427Z 13011KT 11/02 A2983 RMK A01 T01090023  RH  055%=      5-min Rain = 0
KMC4 220428Z 12010KT 11/02 A2983 RMK A01 T01090022  RH  055%=      5-min Rain = 0
KMC4 220429Z 12010KT 11/02 A2983 RMK A01 T01090023  RH  055%=      5-min Rain = 0
KMC4 220430Z 13010KT 11/02 A2983 RMK A01 T01080022  RH  055%=      5-min Rain = 0
KMC4 220431Z 12009KT 11/02 A2983 RMK A01 T01080022  RH  056%=      5-min Rain = 0
KMC4 220432Z 12010KT 11/02 A2983 RMK A01 T01080023  RH  056%=      5-min Rain = 0
KMC4 220433Z 12009KT 11/02 A2983 RMK A01 T01080023  RH  056%=      5-min Rain = 0
KMC4 220434Z 12008KT 11/02 A2984 RMK A01 T01080022  RH  056%=      5-min Rain = 0
KMC4 220435Z 13010KT 11/02 A2984 RMK A01 T01070022  RH  056%=      5-min Rain = 0
KMC4 220436Z 11009KT 11/02 A2984 RMK A01 T01070022  RH  056%=      5-min Rain = 0
KMC4 220437Z 11007KT 11/02 A2984 RMK A01 T01080022  RH  055%=      5-min Rain = 0
KMC4 220438Z 11007KT 11/02 A2984 RMK A01 T01080022  RH  055%=      5-min Rain = 0
KMC4 220439Z 10007KT 11/02 A2984 RMK A01 T01070022  RH  056%=      5-min Rain = 0
KMC4 220440Z 11007KT 11/02 A2984 RMK A01 T01070022  RH  056%=      5-min Rain = 0
KMC4 220441Z 11006KT 11/02 A2984 RMK A01 T01070022  RH  056%=      5-min Rain = 0
KMC4 220442Z 11006KT 11/02 A2984 RMK A01 T01050022  RH  056%=      5-min Rain = 0
KMC4 220443Z 10006KT 11/02 A2984 RMK A01 T01050022  RH  056%=      5-min Rain = 0
KMC4 220444Z 10007KT 10/02 A2984 RMK A01 T01040021  RH  056%=      5-min Rain = 0
KMC4 220445Z 10008KT 10/02 A2984 RMK A01 T01040022  RH  056%=      5-min Rain = 0
KMC4 220446Z 10007KT 11/02 A2984 RMK A01 T01050021  RH  056%=      5-min Rain = 0
KMC4 220447Z 09006KT 11/02 A2984 RMK A01 T01050021  RH  056%=      5-min Rain = 0
KMC4 220448Z 09005KT 11/02 A2984 RMK A01 T01050021  RH  056%=      5-min Rain = 0
KMC4 220449Z 08006KT 11/02 A2984 RMK A01 T01050021  RH  056%=      5-min Rain = 0
KMC4 220450Z 09006KT 10/02 A2984 RMK A01 T01040021  RH  056%=      5-min Rain = 0
KMC4 220451Z 09007KT 10/02 A2984 RMK A01 T01030021  RH  057%=      5-min Rain = 0
KMC4 220452Z 10008KT 10/02 A2984 RMK A01 T01020021  RH  057%=      5-min Rain = 0
KMC4 220453Z 08006KT 10/02 A2984 RMK A01 T01030021  RH  057%=      5-min Rain = 0
KMC4 220454Z 09007KT 10/02 A2984 RMK A01 T01030021  RH  057%=      5-min Rain = 0
KMC4 220455Z 09007KT 10/02 A2984 RMK A01 T01020021  RH  057%=      5-min Rain = 0
KMC4 220456Z 09007KT 10/02 A2984 RMK A01 T01020021  RH  057%=      5-min Rain = 0
KMC4 220457Z 08007KT 10/02 A2984 RMK A01 T01020021  RH  057%=      5-min Rain = 0
KMC4 220458Z 09008KT 10/02 A2984 RMK A01 T01010021  RH  057%=      5-min Rain = 0
KMC4 220459Z 08007KT 10/02 A2984 RMK A01 T01010021  RH  057%=      5-min Rain = 0
KMC4 220500Z 09008KT 10/02 A2984 RMK A01 T01010021  RH  058%=      5-min Rain = 0
KMC4 220501Z 09008KT 10/02 A2984 RMK A01 T01000021  RH  058%=      5-min Rain = 0
KMC4 220502Z 09008KT 10/02 A2984 RMK A01 T01000021  RH  058%=      5-min Rain = 0
KMC4 220503Z 09007KT 10/02 A2984 RMK A01 T01000020  RH  058%=      5-min Rain = 0
KMC4 220504Z 09008KT 10/02 A2984 RMK A01 T01000020  RH  057%=      5-min Rain = 0
KMC4 220505Z 10008KT 10/02 A2984 RMK A01 T01010020  RH  057%=      5-min Rain = 0
KMC4 220506Z 10008KT 10/02 A2984 RMK A01 T01010021  RH  057%=      5-min Rain = 0
KMC4 220507Z 10008KT 10/02 A2984 RMK A01 T01010021  RH  057%=      5-min Rain = 0
KMC4 220508Z 10008KT 10/02 A2984 RMK A01 T01020021  RH  057%=      5-min Rain = 0
KMC4 220509Z 10008KT 10/02 A2984 RMK A01 T01020021  RH  057%=      5-min Rain = 0
KMC4 220510Z 10008KT 10/02 A2984 RMK A01 T01020021  RH  057%=      5-min Rain = 0
KMC4 220511Z 10008KT 10/02 A2984 RMK A01 T01030021  RH  057%=      5-min Rain = 0
KMC4 220512Z 11007KT 10/02 A2984 RMK A01 T01030021  RH  057%=      5-min Rain = 0
KMC4 220513Z 11009KT 10/02 A2984 RMK A01 T01030021  RH  057%=      5-min Rain = 0
KMC4 220514Z 11008KT 10/02 A2984 RMK A01 T01030021  RH  057%=      5-min Rain = 0
KMC4 220515Z 12009KT 10/02 A2984 RMK A01 T01030021  RH  057%=      5-min Rain = 0
KMC4 220516Z 12010KT 10/02 A2984 RMK A01 T01030022  RH  057%=      5-min Rain = 0
KMC4 220517Z 12010KT 10/02 A2984 RMK A01 T01030021  RH  057%=      5-min Rain = 0
KMC4 220518Z 12009KT 10/02 A2984 RMK A01 T01030022  RH  057%=      5-min Rain = 0
KMC4 220519Z 13010KT 10/02 A2984 RMK A01 T01040022  RH  057%=      5-min Rain = 0
KMC4 220520Z 13010KT 10/02 A2984 RMK A01 T01040022  RH  057%=      5-min Rain = 0
KMC4 220521Z 13011KT 10/02 A2984 RMK A01 T01040022  RH  057%=      5-min Rain = 0
KMC4 220522Z 12009KT 10/02 A2984 RMK A01 T01040022  RH  057%=      5-min Rain = 0
KMC4 220523Z 12008KT 10/02 A2984 RMK A01 T01040022  RH  057%=      5-min Rain = 0
KMC4 220524Z 13010KT 10/02 A2984 RMK A01 T01040022  RH  057%=      5-min Rain = 0
KMC4 220525Z 12009KT 10/02 A2984 RMK A01 T01040022  RH  057%=      5-min Rain = 0
KMC4 220526Z 12009KT 10/02 A2984 RMK A01 T01040022  RH  057%=      5-min Rain = 0
KMC4 220527Z 13010KT 10/02 A2984 RMK A01 T01040022  RH  057%=      5-min Rain = 0
KMC4 220528Z 12012KT 11/02 A2984 RMK A01 T01050022  RH  056%=      5-min Rain = 0
KMC4 220529Z 12009KT 11/02 A2984 RMK A01 T01060022  RH  056%=      5-min Rain = 0
KMC4 220530Z 12010KT 11/02 A2984 RMK A01 T01060022  RH  056%=      5-min Rain = 0
KMC4 220531Z 12008KT 11/02 A2984 RMK A01 T01060022  RH  056%=      5-min Rain = 0
KMC4 220532Z 12008KT 11/02 A2984 RMK A01 T01060022  RH  056%=      5-min Rain = 0
KMC4 220533Z 12008KT 11/02 A2984 RMK A01 T01060022  RH  056%=      5-min Rain = 0
KMC4 220534Z 13007KT 11/02 A2985 RMK A01 T01060022  RH  056%=      5-min Rain = 0
KMC4 220535Z 13008KT 11/02 A2984 RMK A01 T01050022  RH  056%=      5-min Rain = 0
KMC4 220536Z 13008KT 11/02 A2984 RMK A01 T01050021  RH  056%=      5-min Rain = 0
KMC4 220537Z 12009KT 10/02 A2984 RMK A01 T01040022  RH  056%=      5-min Rain = 0
KMC4 220538Z 13008KT 11/02 A2984 RMK A01 T01050022  RH  056%=      5-min Rain = 0
KMC4 220539Z 13010KT 11/02 A2984 RMK A01 T01050022  RH  056%=      5-min Rain = 0
KMC4 220540Z 13008KT 11/02 A2984 RMK A01 T01050022  RH  056%=      5-min Rain = 0
KMC4 220541Z 12009KT 11/02 A2984 RMK A01 T01050022  RH  056%=      5-min Rain = 0
KMC4 220542Z 13009KT 11/02 A2984 RMK A01 T01060022  RH  056%=      5-min Rain = 0
KMC4 220543Z 12008KT 11/02 A2984 RMK A01 T01060022  RH  056%=      5-min Rain = 0
KMC4 220544Z 12008KT 11/02 A2984 RMK A01 T01060022  RH  056%=      5-min Rain = 0
KMC4 220545Z 12010KT 11/02 A2984 RMK A01 T01050022  RH  056%=      5-min Rain = 0
KMC4 220546Z 11008KT 11/02 A2984 RMK A01 T01050022  RH  056%=      5-min Rain = 0
KMC4 220547Z 12013KT 11/02 A2984 RMK A01 T01050021  RH  056%=      5-min Rain = 0
KMC4 220548Z 12009KT 11/02 A2984 RMK A01 T01060022  RH  056%=      5-min Rain = 0
KMC4 220549Z 12009KT 11/02 A2984 RMK A01 T01070022  RH  056%=      5-min Rain = 0
KMC4 220550Z 12009KT 11/02 A2984 RMK A01 T01070022  RH  056%=      5-min Rain = 0
KMC4 220551Z 11007KT 11/02 A2984 RMK A01 T01070022  RH  056%=      5-min Rain = 0
KMC4 220552Z 11007KT 11/02 A2984 RMK A01 T01070022  RH  056%=      5-min Rain = 0
KMC4 220553Z 11010KT 11/02 A2984 RMK A01 T01070022  RH  056%=      5-min Rain = 0
KMC4 220554Z 11009KT 11/02 A2984 RMK A01 T01070021  RH  056%=      5-min Rain = 0
KMC4 220555Z 11009KT 11/02 A2984 RMK A01 T01070022  RH  055%=      5-min Rain = 0
KMC4 220556Z 11009KT 11/02 A2984 RMK A01 T01070021  RH  055%=      5-min Rain = 0
KMC4 220557Z 11009KT 11/02 A2984 RMK A01 T01060021  RH  056%=      5-min Rain = 0
KMC4 220558Z 11008KT 11/02 A2984 RMK A01 T01060021  RH  056%=      5-min Rain = 0
KMC4 220559Z 11009KT 11/02 A2984 RMK A01 T01060021  RH  056%=      5-min Rain = 0

Page generated in 0.0336 seconds.